<?xml version="1.0" encoding="utf-8"?>
<gpx xmlns:xsi="http://www.w3.org/2001/XMLSchema-instance" xmlns:xsd="http://www.w3.org/2001/XMLSchema" version="1.1" creator="Shapelink.com" xmlns="http://www.topografix.com/GPX/1/1" xmlns:gpxtpx="http://www.garmin.com/xmlschemas/TrackPointExtension/v1">
  <metadata>
    <name>Cykling - Mtb 5.02 km, 2017-07-13</name>
    <desc></desc>
    <author><name>Alexander Engvall</name></author> 
    <time>2017-07-13T09:25:57Z</time>
  </metadata>
  <trk>
    <name>Cykling - Mtb 5.02 km, 2017-07-13</name>
    <trkseg>
      <trkpt lat="59.611566784697" lon="14.925838928578">
        <ele>132.4</ele>
        <time>2017-07-13T09:25:57Z</time>
      </trkpt>
      <trkpt lat="59.611575334235" lon="14.925743039642">
        <ele>132.2</ele>
        <time>2017-07-13T09:26:02Z</time>
      </trkpt>
      <trkpt lat="59.611583129402" lon="14.925723258358">
        <ele>132.2</ele>
        <time>2017-07-13T09:26:04Z</time>
      </trkpt>
      <trkpt lat="59.611591343664" lon="14.925681265039">
        <ele>132.2</ele>
        <time>2017-07-13T09:26:06Z</time>
      </trkpt>
      <trkpt lat="59.611606263446" lon="14.925639355539">
        <ele>132.2</ele>
        <time>2017-07-13T09:26:08Z</time>
      </trkpt>
      <trkpt lat="59.611621434685" lon="14.925627034146">
        <ele>132.2</ele>
        <time>2017-07-13T09:26:09Z</time>
      </trkpt>
      <trkpt lat="59.611630990051" lon="14.925618652246">
        <ele>132.2</ele>
        <time>2017-07-13T09:26:12Z</time>
      </trkpt>
      <trkpt lat="59.611671726085" lon="14.92558395118">
        <ele>132.2</ele>
        <time>2017-07-13T09:26:18Z</time>
      </trkpt>
      <trkpt lat="59.611713467947" lon="14.925578000031">
        <ele>132.2</ele>
        <time>2017-07-13T09:26:20Z</time>
      </trkpt>
      <trkpt lat="59.611837687705" lon="14.925564169896">
        <ele>132.2</ele>
        <time>2017-07-13T09:26:25Z</time>
      </trkpt>
      <trkpt lat="59.611984370955" lon="14.925562828792">
        <ele>132.2</ele>
        <time>2017-07-13T09:26:31Z</time>
      </trkpt>
      <trkpt lat="59.612176484103" lon="14.925606079396">
        <ele>132.2</ele>
        <time>2017-07-13T09:26:37Z</time>
      </trkpt>
      <trkpt lat="59.612440178677" lon="14.925679169564">
        <ele>132.2</ele>
        <time>2017-07-13T09:26:45Z</time>
      </trkpt>
      <trkpt lat="59.612560961856" lon="14.925714122087">
        <ele>132.2</ele>
        <time>2017-07-13T09:26:49Z</time>
      </trkpt>
      <trkpt lat="59.612749470787" lon="14.925792157576">
        <ele>132.2</ele>
        <time>2017-07-13T09:26:55Z</time>
      </trkpt>
      <trkpt lat="59.612997994122" lon="14.92594102012">
        <ele>132.2</ele>
        <time>2017-07-13T09:27:02Z</time>
      </trkpt>
      <trkpt lat="59.613130260504" lon="14.92612877468">
        <ele>132.2</ele>
        <time>2017-07-13T09:27:07Z</time>
      </trkpt>
      <trkpt lat="59.613305526033" lon="14.926457764255">
        <ele>132.2</ele>
        <time>2017-07-13T09:27:12Z</time>
      </trkpt>
      <trkpt lat="59.613426057755" lon="14.926691283989">
        <ele>132.2</ele>
        <time>2017-07-13T09:27:17Z</time>
      </trkpt>
      <trkpt lat="59.613445587582" lon="14.926739647552">
        <ele>131.8</ele>
        <time>2017-07-13T09:27:18Z</time>
      </trkpt>
      <trkpt lat="59.613476852069" lon="14.926770576763">
        <ele>131.4</ele>
        <time>2017-07-13T09:27:19Z</time>
      </trkpt>
      <trkpt lat="59.613503171235" lon="14.926806116019">
        <ele>130.8</ele>
        <time>2017-07-13T09:27:20Z</time>
      </trkpt>
      <trkpt lat="59.613535106274" lon="14.926832686642">
        <ele>130.4</ele>
        <time>2017-07-13T09:27:21Z</time>
      </trkpt>
      <trkpt lat="59.6135647782" lon="14.926859341084">
        <ele>129.8</ele>
        <time>2017-07-13T09:27:22Z</time>
      </trkpt>
      <trkpt lat="59.613649854485" lon="14.926947351034">
        <ele>129.4</ele>
        <time>2017-07-13T09:27:25Z</time>
      </trkpt>
      <trkpt lat="59.613671312149" lon="14.926983141747">
        <ele>129</ele>
        <time>2017-07-13T09:27:26Z</time>
      </trkpt>
      <trkpt lat="59.613694194736" lon="14.92701809427">
        <ele>128.6</ele>
        <time>2017-07-13T09:27:27Z</time>
      </trkpt>
      <trkpt lat="59.613712467278" lon="14.927059249399">
        <ele>128</ele>
        <time>2017-07-13T09:27:28Z</time>
      </trkpt>
      <trkpt lat="59.613726716508" lon="14.92709604594">
        <ele>127.6</ele>
        <time>2017-07-13T09:27:29Z</time>
      </trkpt>
      <trkpt lat="59.613742558299" lon="14.927123203296">
        <ele>127.6</ele>
        <time>2017-07-13T09:27:30Z</time>
      </trkpt>
      <trkpt lat="59.61374834181" lon="14.927165280434">
        <ele>127.6</ele>
        <time>2017-07-13T09:27:31Z</time>
      </trkpt>
      <trkpt lat="59.613767787818" lon="14.92733828285">
        <ele>127.2</ele>
        <time>2017-07-13T09:27:35Z</time>
      </trkpt>
      <trkpt lat="59.613767201085" lon="14.927387400784">
        <ele>126.8</ele>
        <time>2017-07-13T09:27:36Z</time>
      </trkpt>
      <trkpt lat="59.613766279076" lon="14.927438781831">
        <ele>126.4</ele>
        <time>2017-07-13T09:27:37Z</time>
      </trkpt>
      <trkpt lat="59.613766362895" lon="14.927490749611">
        <ele>126</ele>
        <time>2017-07-13T09:27:38Z</time>
      </trkpt>
      <trkpt lat="59.613764937972" lon="14.927526624143">
        <ele>125.6</ele>
        <time>2017-07-13T09:27:39Z</time>
      </trkpt>
      <trkpt lat="59.613770302388" lon="14.927564929426">
        <ele>125.2</ele>
        <time>2017-07-13T09:27:40Z</time>
      </trkpt>
      <trkpt lat="59.613777007908" lon="14.92759057804">
        <ele>124.6</ele>
        <time>2017-07-13T09:27:41Z</time>
      </trkpt>
      <trkpt lat="59.613766446714" lon="14.927621004337">
        <ele>124.2</ele>
        <time>2017-07-13T09:27:42Z</time>
      </trkpt>
      <trkpt lat="59.613770721483" lon="14.9276526041">
        <ele>123.8</ele>
        <time>2017-07-13T09:27:43Z</time>
      </trkpt>
      <trkpt lat="59.61377013475" lon="14.927675319049">
        <ele>123.4</ele>
        <time>2017-07-13T09:27:44Z</time>
      </trkpt>
      <trkpt lat="59.613777929917" lon="14.92779761097">
        <ele>123.4</ele>
        <time>2017-07-13T09:27:49Z</time>
      </trkpt>
      <trkpt lat="59.613772230225" lon="14.927916550131">
        <ele>123</ele>
        <time>2017-07-13T09:27:54Z</time>
      </trkpt>
      <trkpt lat="59.613771308216" lon="14.927945467686">
        <ele>122.6</ele>
        <time>2017-07-13T09:27:55Z</time>
      </trkpt>
      <trkpt lat="59.613771559673" lon="14.927972289766">
        <ele>122.2</ele>
        <time>2017-07-13T09:27:56Z</time>
      </trkpt>
      <trkpt lat="59.613770470026" lon="14.928000536769">
        <ele>121.8</ele>
        <time>2017-07-13T09:27:57Z</time>
      </trkpt>
      <trkpt lat="59.613771308216" lon="14.928027023573">
        <ele>121.4</ele>
        <time>2017-07-13T09:27:58Z</time>
      </trkpt>
      <trkpt lat="59.613761585212" lon="14.928051331083">
        <ele>121.4</ele>
        <time>2017-07-13T09:27:59Z</time>
      </trkpt>
      <trkpt lat="59.613759405918" lon="14.928147052381">
        <ele>121.4</ele>
        <time>2017-07-13T09:28:02Z</time>
      </trkpt>
      <trkpt lat="59.613751191656" lon="14.928229697915">
        <ele>121</ele>
        <time>2017-07-13T09:28:05Z</time>
      </trkpt>
      <trkpt lat="59.613749012362" lon="14.928278480573">
        <ele>120.6</ele>
        <time>2017-07-13T09:28:06Z</time>
      </trkpt>
      <trkpt lat="59.613745994878" lon="14.928316702037">
        <ele>120.2</ele>
        <time>2017-07-13T09:28:07Z</time>
      </trkpt>
      <trkpt lat="59.61374750362" lon="14.928334974579">
        <ele>119.8</ele>
        <time>2017-07-13T09:28:08Z</time>
      </trkpt>
      <trkpt lat="59.613745324326" lon="14.928350145818">
        <ele>119.2</ele>
        <time>2017-07-13T09:28:09Z</time>
      </trkpt>
      <trkpt lat="59.613725878318" lon="14.92843714994">
        <ele>119.2</ele>
        <time>2017-07-13T09:28:12Z</time>
      </trkpt>
      <trkpt lat="59.613705342663" lon="14.928611242003">
        <ele>118.8</ele>
        <time>2017-07-13T09:28:18Z</time>
      </trkpt>
      <trkpt lat="59.613703666283" lon="14.928639572825">
        <ele>118.4</ele>
        <time>2017-07-13T09:28:19Z</time>
      </trkpt>
      <trkpt lat="59.613702828093" lon="14.928678297203">
        <ele>118</ele>
        <time>2017-07-13T09:28:20Z</time>
      </trkpt>
      <trkpt lat="59.613696876944" lon="14.928721715445">
        <ele>117.6</ele>
        <time>2017-07-13T09:28:21Z</time>
      </trkpt>
      <trkpt lat="59.613689249415" lon="14.928765888058">
        <ele>117.2</ele>
        <time>2017-07-13T09:28:22Z</time>
      </trkpt>
      <trkpt lat="59.613686483388" lon="14.928865213573">
        <ele>117.2</ele>
        <time>2017-07-13T09:28:24Z</time>
      </trkpt>
      <trkpt lat="59.613679442592" lon="14.928959090853">
        <ele>116.8</ele>
        <time>2017-07-13T09:28:26Z</time>
      </trkpt>
      <trkpt lat="59.613680783696" lon="14.928998150507">
        <ele>116.4</ele>
        <time>2017-07-13T09:28:27Z</time>
      </trkpt>
      <trkpt lat="59.61368463937" lon="14.929035533781">
        <ele>115.8</ele>
        <time>2017-07-13T09:28:28Z</time>
      </trkpt>
      <trkpt lat="59.613684220275" lon="14.929081215136">
        <ele>115</ele>
        <time>2017-07-13T09:28:29Z</time>
      </trkpt>
      <trkpt lat="59.61367709566" lon="14.929163525394">
        <ele>115</ele>
        <time>2017-07-13T09:28:31Z</time>
      </trkpt>
      <trkpt lat="59.613674497271" lon="14.929202920324">
        <ele>115</ele>
        <time>2017-07-13T09:28:32Z</time>
      </trkpt>
      <trkpt lat="59.613671982701" lon="14.929274585569">
        <ele>114.6</ele>
        <time>2017-07-13T09:28:34Z</time>
      </trkpt>
      <trkpt lat="59.613668546122" lon="14.929308280807">
        <ele>114.2</ele>
        <time>2017-07-13T09:28:35Z</time>
      </trkpt>
      <trkpt lat="59.613664019896" lon="14.929349184479">
        <ele>113.6</ele>
        <time>2017-07-13T09:28:36Z</time>
      </trkpt>
      <trkpt lat="59.613660583317" lon="14.929372737618">
        <ele>113.2</ele>
        <time>2017-07-13T09:28:37Z</time>
      </trkpt>
      <trkpt lat="59.61365278815" lon="14.929400984621">
        <ele>112.8</ele>
        <time>2017-07-13T09:28:38Z</time>
      </trkpt>
      <trkpt lat="59.613643903336" lon="14.929429483081">
        <ele>112.8</ele>
        <time>2017-07-13T09:28:39Z</time>
      </trkpt>
      <trkpt lat="59.613630576115" lon="14.929495700091">
        <ele>112.8</ele>
        <time>2017-07-13T09:28:42Z</time>
      </trkpt>
      <trkpt lat="59.613616410704" lon="14.929531239347">
        <ele>112.8</ele>
        <time>2017-07-13T09:28:44Z</time>
      </trkpt>
      <trkpt lat="59.613539045767" lon="14.929632995613">
        <ele>112.4</ele>
        <time>2017-07-13T09:28:50Z</time>
      </trkpt>
      <trkpt lat="59.613524964175" lon="14.929654788553">
        <ele>112</ele>
        <time>2017-07-13T09:28:51Z</time>
      </trkpt>
      <trkpt lat="59.613514822076" lon="14.929670714163">
        <ele>111.6</ele>
        <time>2017-07-13T09:28:52Z</time>
      </trkpt>
      <trkpt lat="59.613499986113" lon="14.92969024399">
        <ele>111.2</ele>
        <time>2017-07-13T09:28:53Z</time>
      </trkpt>
      <trkpt lat="59.61348598834" lon="14.929722011391">
        <ele>110.8</ele>
        <time>2017-07-13T09:28:54Z</time>
      </trkpt>
      <trkpt lat="59.613430919257" lon="14.929809434608">
        <ele>110.8</ele>
        <time>2017-07-13T09:28:58Z</time>
      </trkpt>
      <trkpt lat="59.613308627336" lon="14.930003475593">
        <ele>110.8</ele>
        <time>2017-07-13T09:29:04Z</time>
      </trkpt>
      <trkpt lat="59.613284655102" lon="14.930034907718">
        <ele>110.4</ele>
        <time>2017-07-13T09:29:05Z</time>
      </trkpt>
      <trkpt lat="59.613254564081" lon="14.930065166377">
        <ele>110</ele>
        <time>2017-07-13T09:29:06Z</time>
      </trkpt>
      <trkpt lat="59.61322447306" lon="14.930092742828">
        <ele>109.6</ele>
        <time>2017-07-13T09:29:07Z</time>
      </trkpt>
      <trkpt lat="59.613202177206" lon="14.9301168827">
        <ele>109.2</ele>
        <time>2017-07-13T09:29:08Z</time>
      </trkpt>
      <trkpt lat="59.613174936031" lon="14.930142447495">
        <ele>108.8</ele>
        <time>2017-07-13T09:29:09Z</time>
      </trkpt>
      <trkpt lat="59.613152053444" lon="14.930169604851">
        <ele>108.8</ele>
        <time>2017-07-13T09:29:10Z</time>
      </trkpt>
      <trkpt lat="59.613098157827" lon="14.93022249464">
        <ele>108.2</ele>
        <time>2017-07-13T09:29:12Z</time>
      </trkpt>
      <trkpt lat="59.613065887512" lon="14.930216878767">
        <ele>107.8</ele>
        <time>2017-07-13T09:29:13Z</time>
      </trkpt>
      <trkpt lat="59.613047195875" lon="14.930210173247">
        <ele>107.4</ele>
        <time>2017-07-13T09:29:14Z</time>
      </trkpt>
      <trkpt lat="59.613035712672" lon="14.930221321174">
        <ele>107</ele>
        <time>2017-07-13T09:29:15Z</time>
      </trkpt>
      <trkpt lat="59.613036047948" lon="14.93021662731">
        <ele>106.6</ele>
        <time>2017-07-13T09:29:16Z</time>
      </trkpt>
      <trkpt lat="59.613035293577" lon="14.930203719184">
        <ele>106.6</ele>
        <time>2017-07-13T09:29:17Z</time>
      </trkpt>
      <trkpt lat="59.613028755695" lon="14.930203300089">
        <ele>106.6</ele>
        <time>2017-07-13T09:29:18Z</time>
      </trkpt>
      <trkpt lat="59.613024816202" lon="14.930374542306">
        <ele>106.6</ele>
        <time>2017-07-13T09:29:22Z</time>
      </trkpt>
      <trkpt lat="59.6130031909" lon="14.93039683816">
        <ele>107</ele>
        <time>2017-07-13T09:29:25Z</time>
      </trkpt>
      <trkpt lat="59.612991707697" lon="14.930403376042">
        <ele>107.4</ele>
        <time>2017-07-13T09:29:26Z</time>
      </trkpt>
      <trkpt lat="59.612982319969" lon="14.930399268911">
        <ele>107.8</ele>
        <time>2017-07-13T09:29:27Z</time>
      </trkpt>
      <trkpt lat="59.612975027716" lon="14.930395497056">
        <ele>108.2</ele>
        <time>2017-07-13T09:29:28Z</time>
      </trkpt>
      <trkpt lat="59.612959185925" lon="14.930393150124">
        <ele>108.6</ele>
        <time>2017-07-13T09:29:29Z</time>
      </trkpt>
      <trkpt lat="59.612947283627" lon="14.930362220913">
        <ele>108.6</ele>
        <time>2017-07-13T09:29:33Z</time>
      </trkpt>
      <trkpt lat="59.612948121817" lon="14.930349731882">
        <ele>108.6</ele>
        <time>2017-07-13T09:29:34Z</time>
      </trkpt>
      <trkpt lat="59.612946864532" lon="14.930338500136">
        <ele>108.6</ele>
        <time>2017-07-13T09:29:36Z</time>
      </trkpt>
      <trkpt lat="59.612679817198" lon="14.929634336717">
        <ele>112.6</ele>
        <time>2017-07-13T09:30:33Z</time>
      </trkpt>
      <trkpt lat="59.612664981235" lon="14.929623104971">
        <ele>112.6</ele>
        <time>2017-07-13T09:30:34Z</time>
      </trkpt>
      <trkpt lat="59.612641511915" lon="14.929576082512">
        <ele>112.6</ele>
        <time>2017-07-13T09:30:38Z</time>
      </trkpt>
      <trkpt lat="59.612631537454" lon="14.929572562114">
        <ele>112.6</ele>
        <time>2017-07-13T09:30:40Z</time>
      </trkpt>
      <trkpt lat="59.612478064865" lon="14.929501902697">
        <ele>114.8</ele>
        <time>2017-07-13T09:30:56Z</time>
      </trkpt>
      <trkpt lat="59.612456607201" lon="14.929497208833">
        <ele>114.8</ele>
        <time>2017-07-13T09:30:58Z</time>
      </trkpt>
      <trkpt lat="59.612355102392" lon="14.929494275168">
        <ele>114.8</ele>
        <time>2017-07-13T09:31:06Z</time>
      </trkpt>
      <trkpt lat="59.61223708524" lon="14.929486480001">
        <ele>114.8</ele>
        <time>2017-07-13T09:31:13Z</time>
      </trkpt>
      <trkpt lat="59.612067687041" lon="14.929515229918">
        <ele>114.8</ele>
        <time>2017-07-13T09:31:19Z</time>
      </trkpt>
      <trkpt lat="59.611863503957" lon="14.929570969553">
        <ele>114.8</ele>
        <time>2017-07-13T09:31:25Z</time>
      </trkpt>
      <trkpt lat="59.611728974462" lon="14.929618494926">
        <ele>114.4</ele>
        <time>2017-07-13T09:31:30Z</time>
      </trkpt>
      <trkpt lat="59.611704918409" lon="14.929628553206">
        <ele>114</ele>
        <time>2017-07-13T09:31:31Z</time>
      </trkpt>
      <trkpt lat="59.611674995026" lon="14.929642048065">
        <ele>113.6</ele>
        <time>2017-07-13T09:31:32Z</time>
      </trkpt>
      <trkpt lat="59.611648508222" lon="14.929642550979">
        <ele>113.2</ele>
        <time>2017-07-13T09:31:33Z</time>
      </trkpt>
      <trkpt lat="59.611620093581" lon="14.929660320607">
        <ele>112.6</ele>
        <time>2017-07-13T09:31:34Z</time>
      </trkpt>
      <trkpt lat="59.611588242361" lon="14.929686220678">
        <ele>112.6</ele>
        <time>2017-07-13T09:31:35Z</time>
      </trkpt>
      <trkpt lat="59.611502160248" lon="14.929725028875">
        <ele>112.2</ele>
        <time>2017-07-13T09:31:38Z</time>
      </trkpt>
      <trkpt lat="59.611475924901" lon="14.929732488766">
        <ele>111.8</ele>
        <time>2017-07-13T09:31:39Z</time>
      </trkpt>
      <trkpt lat="59.611450443925" lon="14.929746821815">
        <ele>111.4</ele>
        <time>2017-07-13T09:31:40Z</time>
      </trkpt>
      <trkpt lat="59.611421274913" lon="14.929748665833">
        <ele>111</ele>
        <time>2017-07-13T09:31:41Z</time>
      </trkpt>
      <trkpt lat="59.611396715946" lon="14.929758221199">
        <ele>110.6</ele>
        <time>2017-07-13T09:31:42Z</time>
      </trkpt>
      <trkpt lat="59.611294289128" lon="14.929767106013">
        <ele>110.6</ele>
        <time>2017-07-13T09:31:46Z</time>
      </trkpt>
      <trkpt lat="59.611198651649" lon="14.929796275025">
        <ele>110.2</ele>
        <time>2017-07-13T09:31:49Z</time>
      </trkpt>
      <trkpt lat="59.611164537316" lon="14.929790659152">
        <ele>109.8</ele>
        <time>2017-07-13T09:31:50Z</time>
      </trkpt>
      <trkpt lat="59.611136709408" lon="14.929799795423">
        <ele>109.2</ele>
        <time>2017-07-13T09:31:51Z</time>
      </trkpt>
      <trkpt lat="59.611102008342" lon="14.929809183151">
        <ele>108.8</ele>
        <time>2017-07-13T09:31:52Z</time>
      </trkpt>
      <trkpt lat="59.611071749683" lon="14.929815637214">
        <ele>108.4</ele>
        <time>2017-07-13T09:31:53Z</time>
      </trkpt>
      <trkpt lat="59.610927748641" lon="14.929869784288">
        <ele>108.4</ele>
        <time>2017-07-13T09:31:58Z</time>
      </trkpt>
      <trkpt lat="59.610755500596" lon="14.929912615797">
        <ele>108.4</ele>
        <time>2017-07-13T09:32:04Z</time>
      </trkpt>
      <trkpt lat="59.610557184842" lon="14.929978665169">
        <ele>108.4</ele>
        <time>2017-07-13T09:32:11Z</time>
      </trkpt>
      <trkpt lat="59.610528099649" lon="14.929988052897">
        <ele>107.6</ele>
        <time>2017-07-13T09:32:12Z</time>
      </trkpt>
      <trkpt lat="59.61050454651" lon="14.930000877204">
        <ele>107.2</ele>
        <time>2017-07-13T09:32:13Z</time>
      </trkpt>
      <trkpt lat="59.610480658095" lon="14.929993501132">
        <ele>106.8</ele>
        <time>2017-07-13T09:32:14Z</time>
      </trkpt>
      <trkpt lat="59.610465738313" lon="14.930001799213">
        <ele>106.4</ele>
        <time>2017-07-13T09:32:15Z</time>
      </trkpt>
      <trkpt lat="59.610441263165" lon="14.930008420914">
        <ele>106.4</ele>
        <time>2017-07-13T09:32:16Z</time>
      </trkpt>
      <trkpt lat="59.610394575982" lon="14.930055946287">
        <ele>106.4</ele>
        <time>2017-07-13T09:32:18Z</time>
      </trkpt>
      <trkpt lat="59.610298435589" lon="14.930129539369">
        <ele>106.4</ele>
        <time>2017-07-13T09:32:22Z</time>
      </trkpt>
      <trkpt lat="59.610236912443" lon="14.930311007504">
        <ele>106</ele>
        <time>2017-07-13T09:32:27Z</time>
      </trkpt>
      <trkpt lat="59.610232386217" lon="14.930350653891">
        <ele>105.6</ele>
        <time>2017-07-13T09:32:28Z</time>
      </trkpt>
      <trkpt lat="59.610232218579" lon="14.930393820676">
        <ele>105.2</ele>
        <time>2017-07-13T09:32:29Z</time>
      </trkpt>
      <trkpt lat="59.610232553855" lon="14.930440926954">
        <ele>104.8</ele>
        <time>2017-07-13T09:32:30Z</time>
      </trkpt>
      <trkpt lat="59.610232721493" lon="14.930487614137">
        <ele>104.4</ele>
        <time>2017-07-13T09:32:31Z</time>
      </trkpt>
      <trkpt lat="59.610228111448" lon="14.930576713734">
        <ele>104.4</ele>
        <time>2017-07-13T09:32:33Z</time>
      </trkpt>
      <trkpt lat="59.610218136987" lon="14.930715769455">
        <ele>103.6</ele>
        <time>2017-07-13T09:32:36Z</time>
      </trkpt>
      <trkpt lat="59.610221070652" lon="14.930764216837">
        <ele>103.2</ele>
        <time>2017-07-13T09:32:37Z</time>
      </trkpt>
      <trkpt lat="59.610216963521" lon="14.930804282319">
        <ele>102.8</ele>
        <time>2017-07-13T09:32:38Z</time>
      </trkpt>
      <trkpt lat="59.610212521114" lon="14.9308293442">
        <ele>102.4</ele>
        <time>2017-07-13T09:32:39Z</time>
      </trkpt>
      <trkpt lat="59.610205647956" lon="14.930861530696">
        <ele>102.4</ele>
        <time>2017-07-13T09:32:42Z</time>
      </trkpt>
      <trkpt lat="59.610198355703" lon="14.930888520414">
        <ele>100.2</ele>
        <time>2017-07-13T09:34:02Z</time>
      </trkpt>
      <trkpt lat="59.610177987686" lon="14.930891873174">
        <ele>100.2</ele>
        <time>2017-07-13T09:34:03Z</time>
      </trkpt>
      <trkpt lat="59.610126690458" lon="14.93094082347">
        <ele>100.2</ele>
        <time>2017-07-13T09:34:08Z</time>
      </trkpt>
      <trkpt lat="59.61011227359" lon="14.930940991108">
        <ele>100.2</ele>
        <time>2017-07-13T09:34:09Z</time>
      </trkpt>
      <trkpt lat="59.610048319693" lon="14.930935710511">
        <ele>100.2</ele>
        <time>2017-07-13T09:34:12Z</time>
      </trkpt>
      <trkpt lat="59.609995094628" lon="14.930911738277">
        <ele>100.2</ele>
        <time>2017-07-13T09:34:14Z</time>
      </trkpt>
      <trkpt lat="59.609890237059" lon="14.930918779073">
        <ele>100.2</ele>
        <time>2017-07-13T09:34:19Z</time>
      </trkpt>
      <trkpt lat="59.609737267384" lon="14.93090142854">
        <ele>100.2</ele>
        <time>2017-07-13T09:34:26Z</time>
      </trkpt>
      <trkpt lat="59.609609275771" lon="14.930903524015">
        <ele>100.2</ele>
        <time>2017-07-13T09:34:32Z</time>
      </trkpt>
      <trkpt lat="59.609459826494" lon="14.930855411909">
        <ele>100.2</ele>
        <time>2017-07-13T09:34:39Z</time>
      </trkpt>
      <trkpt lat="59.609321106049" lon="14.930834960073">
        <ele>100.2</ele>
        <time>2017-07-13T09:34:46Z</time>
      </trkpt>
      <trkpt lat="59.609111726187" lon="14.93078994927">
        <ele>100.2</ele>
        <time>2017-07-13T09:34:55Z</time>
      </trkpt>
      <trkpt lat="59.608962947462" lon="14.930749045598">
        <ele>100.2</ele>
        <time>2017-07-13T09:35:01Z</time>
      </trkpt>
      <trkpt lat="59.608781730784" lon="14.930710405039">
        <ele>100.2</ele>
        <time>2017-07-13T09:35:08Z</time>
      </trkpt>
      <trkpt lat="59.608601687572" lon="14.930680481656">
        <ele>100.2</ele>
        <time>2017-07-13T09:35:15Z</time>
      </trkpt>
      <trkpt lat="59.608480820574" lon="14.930651983196">
        <ele>100.2</ele>
        <time>2017-07-13T09:35:21Z</time>
      </trkpt>
      <trkpt lat="59.608318882266" lon="14.930632118093">
        <ele>100.2</ele>
        <time>2017-07-13T09:35:29Z</time>
      </trkpt>
      <trkpt lat="59.608166164048" lon="14.930602110891">
        <ele>100.2</ele>
        <time>2017-07-13T09:35:37Z</time>
      </trkpt>
      <trkpt lat="59.608042279566" lon="14.930563135056">
        <ele>100.2</ele>
        <time>2017-07-13T09:35:44Z</time>
      </trkpt>
      <trkpt lat="59.607974469995" lon="14.930553244414">
        <ele>100.6</ele>
        <time>2017-07-13T09:35:48Z</time>
      </trkpt>
      <trkpt lat="59.607952174141" lon="14.930555591346">
        <ele>101</ele>
        <time>2017-07-13T09:35:49Z</time>
      </trkpt>
      <trkpt lat="59.6079321414" lon="14.930554501699">
        <ele>101.4</ele>
        <time>2017-07-13T09:35:50Z</time>
      </trkpt>
      <trkpt lat="59.607913114487" lon="14.9305527415">
        <ele>101.8</ele>
        <time>2017-07-13T09:35:51Z</time>
      </trkpt>
      <trkpt lat="59.607896266868" lon="14.930550143111">
        <ele>102.4</ele>
        <time>2017-07-13T09:35:52Z</time>
      </trkpt>
      <trkpt lat="59.607724437918" lon="14.93051167019">
        <ele>102.4</ele>
        <time>2017-07-13T09:36:00Z</time>
      </trkpt>
      <trkpt lat="59.60753567753" lon="14.930463725722">
        <ele>102.4</ele>
        <time>2017-07-13T09:36:07Z</time>
      </trkpt>
      <trkpt lat="59.607295033181" lon="14.930378984713">
        <ele>102.4</ele>
        <time>2017-07-13T09:36:15Z</time>
      </trkpt>
      <trkpt lat="59.60711155339" lon="14.93030463726">
        <ele>102.8</ele>
        <time>2017-07-13T09:36:22Z</time>
      </trkpt>
      <trkpt lat="59.607088335527" lon="14.930288041098">
        <ele>103.2</ele>
        <time>2017-07-13T09:36:23Z</time>
      </trkpt>
      <trkpt lat="59.607062770732" lon="14.930269936194">
        <ele>103.6</ele>
        <time>2017-07-13T09:36:24Z</time>
      </trkpt>
      <trkpt lat="59.607038044127" lon="14.930256106059">
        <ele>104</ele>
        <time>2017-07-13T09:36:25Z</time>
      </trkpt>
      <trkpt lat="59.607016418825" lon="14.930240431906">
        <ele>104.4</ele>
        <time>2017-07-13T09:36:26Z</time>
      </trkpt>
      <trkpt lat="59.606968809633" lon="14.930208161591">
        <ele>104.4</ele>
        <time>2017-07-13T09:36:28Z</time>
      </trkpt>
      <trkpt lat="59.606778121408" lon="14.930070949888">
        <ele>104.4</ele>
        <time>2017-07-13T09:36:36Z</time>
      </trkpt>
      <trkpt lat="59.606624900276" lon="14.929944550836">
        <ele>104.4</ele>
        <time>2017-07-13T09:36:43Z</time>
      </trkpt>
      <trkpt lat="59.606472601153" lon="14.929823683838">
        <ele>104.4</ele>
        <time>2017-07-13T09:36:50Z</time>
      </trkpt>
      <trkpt lat="59.606310998121" lon="14.929690411628">
        <ele>104.4</ele>
        <time>2017-07-13T09:36:58Z</time>
      </trkpt>
      <trkpt lat="59.606185856354" lon="14.929590415561">
        <ele>104.4</ele>
        <time>2017-07-13T09:37:05Z</time>
      </trkpt>
      <trkpt lat="59.606028863367" lon="14.929479606843">
        <ele>104.4</ele>
        <time>2017-07-13T09:37:13Z</time>
      </trkpt>
      <trkpt lat="59.605883521221" lon="14.929376006559">
        <ele>104.4</ele>
        <time>2017-07-13T09:37:21Z</time>
      </trkpt>
      <trkpt lat="59.605743375853" lon="14.929272238637">
        <ele>104.4</ele>
        <time>2017-07-13T09:37:29Z</time>
      </trkpt>
      <trkpt lat="59.605610690376" lon="14.929200238116">
        <ele>104.4</ele>
        <time>2017-07-13T09:37:35Z</time>
      </trkpt>
      <trkpt lat="59.605468952447" lon="14.929138463513">
        <ele>104.4</ele>
        <time>2017-07-13T09:37:42Z</time>
      </trkpt>
      <trkpt lat="59.605324783767" lon="14.929107450483">
        <ele>104.4</ele>
        <time>2017-07-13T09:37:49Z</time>
      </trkpt>
      <trkpt lat="59.605306343587" lon="14.929097895117">
        <ele>104.4</ele>
        <time>2017-07-13T09:37:50Z</time>
      </trkpt>
      <trkpt lat="59.605254627264" lon="14.929050788839">
        <ele>104.8</ele>
        <time>2017-07-13T09:37:53Z</time>
      </trkpt>
      <trkpt lat="59.605240629491" lon="14.929029331175">
        <ele>105.2</ele>
        <time>2017-07-13T09:37:54Z</time>
      </trkpt>
      <trkpt lat="59.605232582867" lon="14.929004185475">
        <ele>105.6</ele>
        <time>2017-07-13T09:37:55Z</time>
      </trkpt>
      <trkpt lat="59.605227972822" lon="14.928967388934">
        <ele>106.4</ele>
        <time>2017-07-13T09:37:56Z</time>
      </trkpt>
      <trkpt lat="59.605242473509" lon="14.928727666594">
        <ele>106.4</ele>
        <time>2017-07-13T09:38:02Z</time>
      </trkpt>
      <trkpt lat="59.605264434087" lon="14.92851342523">
        <ele>106.8</ele>
        <time>2017-07-13T09:38:08Z</time>
      </trkpt>
      <trkpt lat="59.605270804331" lon="14.928482328381">
        <ele>107.2</ele>
        <time>2017-07-13T09:38:09Z</time>
      </trkpt>
      <trkpt lat="59.605280275878" lon="14.928454584292">
        <ele>107.6</ele>
        <time>2017-07-13T09:38:10Z</time>
      </trkpt>
      <trkpt lat="59.605286143208" lon="14.928427846031">
        <ele>108</ele>
        <time>2017-07-13T09:38:11Z</time>
      </trkpt>
      <trkpt lat="59.605293435461" lon="14.928400353399">
        <ele>108.4</ele>
        <time>2017-07-13T09:38:12Z</time>
      </trkpt>
      <trkpt lat="59.605302404094" lon="14.92836925655">
        <ele>108.4</ele>
        <time>2017-07-13T09:38:13Z</time>
      </trkpt>
      <trkpt lat="59.605348085449" lon="14.928168510045">
        <ele>108.4</ele>
        <time>2017-07-13T09:38:19Z</time>
      </trkpt>
      <trkpt lat="59.605370884217" lon="14.928116877541">
        <ele>108.4</ele>
        <time>2017-07-13T09:38:21Z</time>
      </trkpt>
      <trkpt lat="59.605379601393" lon="14.928085445416">
        <ele>108.4</ele>
        <time>2017-07-13T09:38:22Z</time>
      </trkpt>
      <trkpt lat="59.605387480379" lon="14.928054348567">
        <ele>108.8</ele>
        <time>2017-07-13T09:38:23Z</time>
      </trkpt>
      <trkpt lat="59.605396365193" lon="14.928022497347">
        <ele>109.2</ele>
        <time>2017-07-13T09:38:24Z</time>
      </trkpt>
      <trkpt lat="59.605406339654" lon="14.927987796281">
        <ele>109.6</ele>
        <time>2017-07-13T09:38:25Z</time>
      </trkpt>
      <trkpt lat="59.605416481753" lon="14.927953095215">
        <ele>110</ele>
        <time>2017-07-13T09:38:26Z</time>
      </trkpt>
      <trkpt lat="59.605426875309" lon="14.927915041389">
        <ele>110.4</ele>
        <time>2017-07-13T09:38:27Z</time>
      </trkpt>
      <trkpt lat="59.60543684977" lon="14.927873718622">
        <ele>110.4</ele>
        <time>2017-07-13T09:38:28Z</time>
      </trkpt>
      <trkpt lat="59.605459397081" lon="14.927798532979">
        <ele>110.4</ele>
        <time>2017-07-13T09:38:30Z</time>
      </trkpt>
      <trkpt lat="59.605530475593" lon="14.927520924451">
        <ele>110.4</ele>
        <time>2017-07-13T09:38:37Z</time>
      </trkpt>
      <trkpt lat="59.60556341646" lon="14.927378096875">
        <ele>110.4</ele>
        <time>2017-07-13T09:38:41Z</time>
      </trkpt>
      <trkpt lat="59.605567188315" lon="14.927344653094">
        <ele>111</ele>
        <time>2017-07-13T09:38:42Z</time>
      </trkpt>
      <trkpt lat="59.60557431293" lon="14.92731397534">
        <ele>111.4</ele>
        <time>2017-07-13T09:38:43Z</time>
      </trkpt>
      <trkpt lat="59.605581437545" lon="14.927287907631">
        <ele>111.8</ele>
        <time>2017-07-13T09:38:44Z</time>
      </trkpt>
      <trkpt lat="59.60558772397" lon="14.927259073895">
        <ele>112.2</ele>
        <time>2017-07-13T09:38:45Z</time>
      </trkpt>
      <trkpt lat="59.605589567988" lon="14.927227809408">
        <ele>112.6</ele>
        <time>2017-07-13T09:38:46Z</time>
      </trkpt>
      <trkpt lat="59.60559191492" lon="14.927201154966">
        <ele>112.6</ele>
        <time>2017-07-13T09:38:47Z</time>
      </trkpt>
      <trkpt lat="59.605598452802" lon="14.927180367854">
        <ele>112.6</ele>
        <time>2017-07-13T09:38:48Z</time>
      </trkpt>
      <trkpt lat="59.60562292795" lon="14.92710442784">
        <ele>113</ele>
        <time>2017-07-13T09:38:52Z</time>
      </trkpt>
      <trkpt lat="59.60562628071" lon="14.927086239117">
        <ele>113.4</ele>
        <time>2017-07-13T09:38:53Z</time>
      </trkpt>
      <trkpt lat="59.605633740601" lon="14.927069642955">
        <ele>113.8</ele>
        <time>2017-07-13T09:38:54Z</time>
      </trkpt>
      <trkpt lat="59.605640865216" lon="14.927053130612">
        <ele>114.2</ele>
        <time>2017-07-13T09:38:55Z</time>
      </trkpt>
      <trkpt lat="59.605644050338" lon="14.92703653445">
        <ele>114.6</ele>
        <time>2017-07-13T09:38:56Z</time>
      </trkpt>
      <trkpt lat="59.605656120274" lon="14.926999570271">
        <ele>114.6</ele>
        <time>2017-07-13T09:38:59Z</time>
      </trkpt>
      <trkpt lat="59.605661233233" lon="14.926985572498">
        <ele>114.6</ele>
        <time>2017-07-13T09:39:00Z</time>
      </trkpt>
      <trkpt lat="59.605662825794" lon="14.926977106779">
        <ele>114.6</ele>
        <time>2017-07-13T09:39:01Z</time>
      </trkpt>
      <trkpt lat="59.605673889902" lon="14.926940394057">
        <ele>114.6</ele>
        <time>2017-07-13T09:39:15Z</time>
      </trkpt>
      <trkpt lat="59.605681349793" lon="14.926920948049">
        <ele>114.6</ele>
        <time>2017-07-13T09:39:16Z</time>
      </trkpt>
      <trkpt lat="59.605707333683" lon="14.926828495692">
        <ele>114.6</ele>
        <time>2017-07-13T09:39:21Z</time>
      </trkpt>
      <trkpt lat="59.605721499094" lon="14.926752639497">
        <ele>114.6</ele>
        <time>2017-07-13T09:39:25Z</time>
      </trkpt>
      <trkpt lat="59.605729042804" lon="14.926720620639">
        <ele>114.6</ele>
        <time>2017-07-13T09:39:26Z</time>
      </trkpt>
      <trkpt lat="59.605741531835" lon="14.926689272333">
        <ele>114.6</ele>
        <time>2017-07-13T09:39:28Z</time>
      </trkpt>
      <trkpt lat="59.60576877301" lon="14.926677537673">
        <ele>114.6</ele>
        <time>2017-07-13T09:40:32Z</time>
      </trkpt>
      <trkpt lat="59.605797020013" lon="14.926569746439">
        <ele>114.6</ele>
        <time>2017-07-13T09:40:36Z</time>
      </trkpt>
      <trkpt lat="59.605804479904" lon="14.92655038425">
        <ele>114.6</ele>
        <time>2017-07-13T09:40:37Z</time>
      </trkpt>
      <trkpt lat="59.605830882889" lon="14.926485173068">
        <ele>115</ele>
        <time>2017-07-13T09:40:41Z</time>
      </trkpt>
      <trkpt lat="59.605837672228" lon="14.926473019313">
        <ele>115.4</ele>
        <time>2017-07-13T09:40:42Z</time>
      </trkpt>
      <trkpt lat="59.60584672468" lon="14.926465810879">
        <ele>115.8</ele>
        <time>2017-07-13T09:40:43Z</time>
      </trkpt>
      <trkpt lat="59.605855777132" lon="14.926451142554">
        <ele>116.2</ele>
        <time>2017-07-13T09:40:44Z</time>
      </trkpt>
      <trkpt lat="59.605865919231" lon="14.926432618555">
        <ele>116.6</ele>
        <time>2017-07-13T09:40:45Z</time>
      </trkpt>
      <trkpt lat="59.605869942543" lon="14.92642297937">
        <ele>116.6</ele>
        <time>2017-07-13T09:40:46Z</time>
      </trkpt>
      <trkpt lat="59.605901961401" lon="14.926359444568">
        <ele>116.6</ele>
        <time>2017-07-13T09:40:51Z</time>
      </trkpt>
      <trkpt lat="59.605918138468" lon="14.926329437366">
        <ele>116.6</ele>
        <time>2017-07-13T09:40:53Z</time>
      </trkpt>
      <trkpt lat="59.605937081562" lon="14.926297167051">
        <ele>116.6</ele>
        <time>2017-07-13T09:40:55Z</time>
      </trkpt>
      <trkpt lat="59.605956779027" lon="14.926253916447">
        <ele>116.6</ele>
        <time>2017-07-13T09:40:57Z</time>
      </trkpt>
      <trkpt lat="59.605980332166" lon="14.926209408558">
        <ele>116.6</ele>
        <time>2017-07-13T09:40:59Z</time>
      </trkpt>
      <trkpt lat="59.60599843707" lon="14.926197841536">
        <ele>116.6</ele>
        <time>2017-07-13T09:41:00Z</time>
      </trkpt>
      <trkpt lat="59.606056775094" lon="14.926150399982">
        <ele>116.6</ele>
        <time>2017-07-13T09:41:04Z</time>
      </trkpt>
      <trkpt lat="59.606139588266" lon="14.926069766104">
        <ele>116.6</ele>
        <time>2017-07-13T09:41:10Z</time>
      </trkpt>
      <trkpt lat="59.606258946522" lon="14.926011847175">
        <ele>116.6</ele>
        <time>2017-07-13T09:41:16Z</time>
      </trkpt>
      <trkpt lat="59.606364558462" lon="14.925960969042">
        <ele>116.6</ele>
        <time>2017-07-13T09:41:21Z</time>
      </trkpt>
      <trkpt lat="59.606473606981" lon="14.925906905787">
        <ele>116.6</ele>
        <time>2017-07-13T09:41:27Z</time>
      </trkpt>
      <trkpt lat="59.606564802053" lon="14.925814118154">
        <ele>116.6</ele>
        <time>2017-07-13T09:41:33Z</time>
      </trkpt>
      <trkpt lat="59.606604113164" lon="14.925753181741">
        <ele>116.6</ele>
        <time>2017-07-13T09:41:36Z</time>
      </trkpt>
      <trkpt lat="59.606619871136" lon="14.925733149">
        <ele>116.6</ele>
        <time>2017-07-13T09:41:37Z</time>
      </trkpt>
      <trkpt lat="59.606675359314" lon="14.925651090199">
        <ele>116.6</ele>
        <time>2017-07-13T09:41:41Z</time>
      </trkpt>
      <trkpt lat="59.606726405085" lon="14.925472555729">
        <ele>116.6</ele>
        <time>2017-07-13T09:41:47Z</time>
      </trkpt>
      <trkpt lat="59.606736966279" lon="14.925447158572">
        <ele>116.6</ele>
        <time>2017-07-13T09:41:48Z</time>
      </trkpt>
      <trkpt lat="59.606795471941" lon="14.925272815052">
        <ele>116.6</ele>
        <time>2017-07-13T09:41:54Z</time>
      </trkpt>
      <trkpt lat="59.60686680191" lon="14.92517742903">
        <ele>117</ele>
        <time>2017-07-13T09:41:58Z</time>
      </trkpt>
      <trkpt lat="59.606884320081" lon="14.925165778189">
        <ele>117.4</ele>
        <time>2017-07-13T09:41:59Z</time>
      </trkpt>
      <trkpt lat="59.606899742777" lon="14.925155719909">
        <ele>117.8</ele>
        <time>2017-07-13T09:42:00Z</time>
      </trkpt>
      <trkpt lat="59.606909130505" lon="14.925141638317">
        <ele>118.4</ele>
        <time>2017-07-13T09:42:01Z</time>
      </trkpt>
      <trkpt lat="59.606918182957" lon="14.925128897829">
        <ele>118.8</ele>
        <time>2017-07-13T09:42:02Z</time>
      </trkpt>
      <trkpt lat="59.606954476584" lon="14.925115570608">
        <ele>118.8</ele>
        <time>2017-07-13T09:42:04Z</time>
      </trkpt>
      <trkpt lat="59.60702605801" lon="14.925089502899">
        <ele>118.8</ele>
        <time>2017-07-13T09:42:08Z</time>
      </trkpt>
      <trkpt lat="59.60709059864" lon="14.92506930252">
        <ele>119.2</ele>
        <time>2017-07-13T09:42:12Z</time>
      </trkpt>
      <trkpt lat="59.607112643037" lon="14.925062848457">
        <ele>119.6</ele>
        <time>2017-07-13T09:42:13Z</time>
      </trkpt>
      <trkpt lat="59.607127227543" lon="14.925064189561">
        <ele>120</ele>
        <time>2017-07-13T09:42:14Z</time>
      </trkpt>
      <trkpt lat="59.607139129841" lon="14.925059914792">
        <ele>120.4</ele>
        <time>2017-07-13T09:42:15Z</time>
      </trkpt>
      <trkpt lat="59.607154468718" lon="14.925048180132">
        <ele>121</ele>
        <time>2017-07-13T09:42:16Z</time>
      </trkpt>
      <trkpt lat="59.607176596934" lon="14.92504750958">
        <ele>121</ele>
        <time>2017-07-13T09:42:17Z</time>
      </trkpt>
      <trkpt lat="59.607237784804" lon="14.925037786576">
        <ele>121</ele>
        <time>2017-07-13T09:42:21Z</time>
      </trkpt>
      <trkpt lat="59.607317580492" lon="14.92503242216">
        <ele>121</ele>
        <time>2017-07-13T09:42:26Z</time>
      </trkpt>
      <trkpt lat="59.607404165519" lon="14.925004175157">
        <ele>121</ele>
        <time>2017-07-13T09:42:31Z</time>
      </trkpt>
      <trkpt lat="59.607464263742" lon="14.924997050542">
        <ele>121.4</ele>
        <time>2017-07-13T09:42:36Z</time>
      </trkpt>
      <trkpt lat="59.607478093877" lon="14.92499721818">
        <ele>121.8</ele>
        <time>2017-07-13T09:42:37Z</time>
      </trkpt>
      <trkpt lat="59.607490499089" lon="14.924990009746">
        <ele>122.2</ele>
        <time>2017-07-13T09:42:38Z</time>
      </trkpt>
      <trkpt lat="59.607503742491" lon="14.924981879303">
        <ele>122.6</ele>
        <time>2017-07-13T09:42:39Z</time>
      </trkpt>
      <trkpt lat="59.607519249006" lon="14.924976095792">
        <ele>123</ele>
        <time>2017-07-13T09:42:40Z</time>
      </trkpt>
      <trkpt lat="59.607570127139" lon="14.924942819649">
        <ele>123</ele>
        <time>2017-07-13T09:42:44Z</time>
      </trkpt>
      <trkpt lat="59.607630895914" lon="14.924922200175">
        <ele>123</ele>
        <time>2017-07-13T09:42:49Z</time>
      </trkpt>
      <trkpt lat="59.607645899515" lon="14.924911303705">
        <ele>123</ele>
        <time>2017-07-13T09:42:50Z</time>
      </trkpt>
      <trkpt lat="59.607742207546" lon="14.924862772504">
        <ele>123</ele>
        <time>2017-07-13T09:42:56Z</time>
      </trkpt>
      <trkpt lat="59.607760060993" lon="14.924864867979">
        <ele>123</ele>
        <time>2017-07-13T09:42:57Z</time>
      </trkpt>
      <trkpt lat="59.607852932445" lon="14.924826897972">
        <ele>123</ele>
        <time>2017-07-13T09:43:02Z</time>
      </trkpt>
      <trkpt lat="59.60790196656" lon="14.924802339005">
        <ele>123</ele>
        <time>2017-07-13T09:43:05Z</time>
      </trkpt>
      <trkpt lat="59.607947731734" lon="14.92479353801">
        <ele>123.6</ele>
        <time>2017-07-13T09:43:08Z</time>
      </trkpt>
      <trkpt lat="59.60796231624" lon="14.92479102344">
        <ele>124</ele>
        <time>2017-07-13T09:43:09Z</time>
      </trkpt>
      <trkpt lat="59.607975308185" lon="14.924785659024">
        <ele>124.4</ele>
        <time>2017-07-13T09:43:10Z</time>
      </trkpt>
      <trkpt lat="59.607988635406" lon="14.924781132798">
        <ele>124.8</ele>
        <time>2017-07-13T09:43:11Z</time>
      </trkpt>
      <trkpt lat="59.607999867152" lon="14.924779121142">
        <ele>125.2</ele>
        <time>2017-07-13T09:43:12Z</time>
      </trkpt>
      <trkpt lat="59.608012775278" lon="14.924780294608">
        <ele>125.2</ele>
        <time>2017-07-13T09:43:13Z</time>
      </trkpt>
      <trkpt lat="59.608022498282" lon="14.924774762554">
        <ele>125.2</ele>
        <time>2017-07-13T09:43:14Z</time>
      </trkpt>
      <trkpt lat="59.608066000343" lon="14.924759256039">
        <ele>126</ele>
        <time>2017-07-13T09:43:18Z</time>
      </trkpt>
      <trkpt lat="59.608076142442" lon="14.924758417849">
        <ele>126.4</ele>
        <time>2017-07-13T09:43:19Z</time>
      </trkpt>
      <trkpt lat="59.608087038912" lon="14.924759507496">
        <ele>126.8</ele>
        <time>2017-07-13T09:43:20Z</time>
      </trkpt>
      <trkpt lat="59.608100869047" lon="14.924755651822">
        <ele>127.2</ele>
        <time>2017-07-13T09:43:21Z</time>
      </trkpt>
      <trkpt lat="59.608138587597" lon="14.924737630737">
        <ele>127.2</ele>
        <time>2017-07-13T09:43:24Z</time>
      </trkpt>
      <trkpt lat="59.60816180546" lon="14.924726147534">
        <ele>127.2</ele>
        <time>2017-07-13T09:43:27Z</time>
      </trkpt>
      <trkpt lat="59.608207486815" lon="14.924709383734">
        <ele>127.2</ele>
        <time>2017-07-13T09:45:01Z</time>
      </trkpt>
      <trkpt lat="59.608217712733" lon="14.924706869164">
        <ele>127.2</ele>
        <time>2017-07-13T09:45:02Z</time>
      </trkpt>
      <trkpt lat="59.608257778215" lon="14.924692033201">
        <ele>127.2</ele>
        <time>2017-07-13T09:45:06Z</time>
      </trkpt>
      <trkpt lat="59.608276469852" lon="14.924679460351">
        <ele>127.2</ele>
        <time>2017-07-13T09:45:08Z</time>
      </trkpt>
      <trkpt lat="59.608288707426" lon="14.924679460351">
        <ele>127.2</ele>
        <time>2017-07-13T09:45:09Z</time>
      </trkpt>
      <trkpt lat="59.608342100129" lon="14.924658002687">
        <ele>127.2</ele>
        <time>2017-07-13T09:45:13Z</time>
      </trkpt>
      <trkpt lat="59.608396582479" lon="14.924650878072">
        <ele>127.2</ele>
        <time>2017-07-13T09:45:18Z</time>
      </trkpt>
      <trkpt lat="59.608426338224" lon="14.924640819792">
        <ele>127.2</ele>
        <time>2017-07-13T09:45:20Z</time>
      </trkpt>
      <trkpt lat="59.608441844739" lon="14.924639897783">
        <ele>127.2</ele>
        <time>2017-07-13T09:45:21Z</time>
      </trkpt>
      <trkpt lat="59.6084769649" lon="14.924612321332">
        <ele>127.2</ele>
        <time>2017-07-13T09:45:24Z</time>
      </trkpt>
      <trkpt lat="59.608553156371" lon="14.924591450401">
        <ele>127.2</ele>
        <time>2017-07-13T09:45:29Z</time>
      </trkpt>
      <trkpt lat="59.60869154154" lon="14.924530430169">
        <ele>127.2</ele>
        <time>2017-07-13T09:45:36Z</time>
      </trkpt>
      <trkpt lat="59.608805954475" lon="14.924479384398">
        <ele>127.2</ele>
        <time>2017-07-13T09:45:42Z</time>
      </trkpt>
      <trkpt lat="59.608909554759" lon="14.924419453813">
        <ele>127.2</ele>
        <time>2017-07-13T09:45:48Z</time>
      </trkpt>
      <trkpt lat="59.609014915242" lon="14.924385004204">
        <ele>127.2</ele>
        <time>2017-07-13T09:45:53Z</time>
      </trkpt>
      <trkpt lat="59.609151121117" lon="14.924319038651">
        <ele>127.2</ele>
        <time>2017-07-13T09:45:59Z</time>
      </trkpt>
      <trkpt lat="59.609259163808" lon="14.924258018419">
        <ele>127.2</ele>
        <time>2017-07-13T09:46:05Z</time>
      </trkpt>
      <trkpt lat="59.609370559259" lon="14.924199680395">
        <ele>127.2</ele>
        <time>2017-07-13T09:46:12Z</time>
      </trkpt>
      <trkpt lat="59.609402578117" lon="14.924190711762">
        <ele>127.2</ele>
        <time>2017-07-13T09:46:14Z</time>
      </trkpt>
      <trkpt lat="59.609429819292" lon="14.924172355401">
        <ele>127.6</ele>
        <time>2017-07-13T09:46:16Z</time>
      </trkpt>
      <trkpt lat="59.609442308323" lon="14.924159111999">
        <ele>128</ele>
        <time>2017-07-13T09:46:17Z</time>
      </trkpt>
      <trkpt lat="59.609455300268" lon="14.924151400651">
        <ele>128.4</ele>
        <time>2017-07-13T09:46:18Z</time>
      </trkpt>
      <trkpt lat="59.609471393516" lon="14.924142432018">
        <ele>128.8</ele>
        <time>2017-07-13T09:46:19Z</time>
      </trkpt>
      <trkpt lat="59.609488241135" lon="14.9241322061">
        <ele>129.2</ele>
        <time>2017-07-13T09:46:20Z</time>
      </trkpt>
      <trkpt lat="59.609539706001" lon="14.924136145593">
        <ele>129.2</ele>
        <time>2017-07-13T09:46:23Z</time>
      </trkpt>
      <trkpt lat="59.609686053975" lon="14.924041513942">
        <ele>129.2</ele>
        <time>2017-07-13T09:46:31Z</time>
      </trkpt>
      <trkpt lat="59.609704494155" lon="14.924033383499">
        <ele>129.2</ele>
        <time>2017-07-13T09:46:32Z</time>
      </trkpt>
      <trkpt lat="59.609780434169" lon="14.923993485655">
        <ele>129.2</ele>
        <time>2017-07-13T09:46:36Z</time>
      </trkpt>
      <trkpt lat="59.609799544901" lon="14.923980158434">
        <ele>129.2</ele>
        <time>2017-07-13T09:46:37Z</time>
      </trkpt>
      <trkpt lat="59.609948994178" lon="14.923894830692">
        <ele>129.2</ele>
        <time>2017-07-13T09:46:44Z</time>
      </trkpt>
      <trkpt lat="59.609986964185" lon="14.923873373028">
        <ele>129.2</ele>
        <time>2017-07-13T09:46:47Z</time>
      </trkpt>
      <trkpt lat="59.610016133197" lon="14.92386817625">
        <ele>129.2</ele>
        <time>2017-07-13T09:46:49Z</time>
      </trkpt>
      <trkpt lat="59.610050750444" lon="14.923853424106">
        <ele>129.2</ele>
        <time>2017-07-13T09:46:51Z</time>
      </trkpt>
      <trkpt lat="59.610117135092" lon="14.923806653104">
        <ele>129.2</ele>
        <time>2017-07-13T09:46:55Z</time>
      </trkpt>
      <trkpt lat="59.610239762289" lon="14.923753428039">
        <ele>129.2</ele>
        <time>2017-07-13T09:47:03Z</time>
      </trkpt>
      <trkpt lat="59.610253508605" lon="14.923746135786">
        <ele>129.2</ele>
        <time>2017-07-13T09:47:04Z</time>
      </trkpt>
      <trkpt lat="59.610307068946" lon="14.923710680349">
        <ele>129.2</ele>
        <time>2017-07-13T09:47:08Z</time>
      </trkpt>
      <trkpt lat="59.610360461649" lon="14.923688719771">
        <ele>129.2</ele>
        <time>2017-07-13T09:47:12Z</time>
      </trkpt>
      <trkpt lat="59.610401868235" lon="14.923668938487">
        <ele>129.2</ele>
        <time>2017-07-13T09:47:15Z</time>
      </trkpt>
      <trkpt lat="59.610410501592" lon="14.923650582126">
        <ele>129.2</ele>
        <time>2017-07-13T09:47:16Z</time>
      </trkpt>
      <trkpt lat="59.610421481881" lon="14.923644128063">
        <ele>129.2</ele>
        <time>2017-07-13T09:47:18Z</time>
      </trkpt>
      <trkpt lat="59.610426091926" lon="14.923648235194">
        <ele>131.6</ele>
        <time>2017-07-13T09:48:04Z</time>
      </trkpt>
      <trkpt lat="59.610470599815" lon="14.923605571323">
        <ele>131.6</ele>
        <time>2017-07-13T09:48:08Z</time>
      </trkpt>
      <trkpt lat="59.61049532642" lon="14.923587131143">
        <ele>131.6</ele>
        <time>2017-07-13T09:48:10Z</time>
      </trkpt>
      <trkpt lat="59.610610242269" lon="14.923543545263">
        <ele>131.6</ele>
        <time>2017-07-13T09:48:17Z</time>
      </trkpt>
      <trkpt lat="59.610714010191" lon="14.923490739293">
        <ele>131.6</ele>
        <time>2017-07-13T09:48:24Z</time>
      </trkpt>
      <trkpt lat="59.610816101733" lon="14.923421588618">
        <ele>131.6</ele>
        <time>2017-07-13T09:48:30Z</time>
      </trkpt>
      <trkpt lat="59.610909140823" lon="14.923363669689">
        <ele>131.6</ele>
        <time>2017-07-13T09:48:36Z</time>
      </trkpt>
      <trkpt lat="59.611010897089" lon="14.92328814877">
        <ele>131.6</ele>
        <time>2017-07-13T09:48:43Z</time>
      </trkpt>
      <trkpt lat="59.611151210095" lon="14.923214807145">
        <ele>131.6</ele>
        <time>2017-07-13T09:48:52Z</time>
      </trkpt>
      <trkpt lat="59.611257324949" lon="14.923138364217">
        <ele>131.6</ele>
        <time>2017-07-13T09:48:58Z</time>
      </trkpt>
      <trkpt lat="59.611391016254" lon="14.923054126122">
        <ele>131.6</ele>
        <time>2017-07-13T09:49:06Z</time>
      </trkpt>
      <trkpt lat="59.611520181333" lon="14.922988160569">
        <ele>131.6</ele>
        <time>2017-07-13T09:49:14Z</time>
      </trkpt>
      <trkpt lat="59.611550439992" lon="14.922959243014">
        <ele>132</ele>
        <time>2017-07-13T09:49:16Z</time>
      </trkpt>
      <trkpt lat="59.611566952335" lon="14.922953040408">
        <ele>132.4</ele>
        <time>2017-07-13T09:49:17Z</time>
      </trkpt>
      <trkpt lat="59.611583045583" lon="14.922951950761">
        <ele>132.8</ele>
        <time>2017-07-13T09:49:18Z</time>
      </trkpt>
      <trkpt lat="59.611598887374" lon="14.922938958816">
        <ele>133.2</ele>
        <time>2017-07-13T09:49:19Z</time>
      </trkpt>
      <trkpt lat="59.611616237907" lon="14.922928816717">
        <ele>133.6</ele>
        <time>2017-07-13T09:49:20Z</time>
      </trkpt>
      <trkpt lat="59.611729058281" lon="14.922844662441">
        <ele>133.6</ele>
        <time>2017-07-13T09:49:27Z</time>
      </trkpt>
      <trkpt lat="59.611815727127" lon="14.92277517649">
        <ele>133.6</ele>
        <time>2017-07-13T09:49:32Z</time>
      </trkpt>
      <trkpt lat="59.611946149491" lon="14.922662104659">
        <ele>133.6</ele>
        <time>2017-07-13T09:49:40Z</time>
      </trkpt>
      <trkpt lat="59.612056622933" lon="14.92261843496">
        <ele>133.6</ele>
        <time>2017-07-13T09:49:46Z</time>
      </trkpt>
      <trkpt lat="59.612115044776" lon="14.922587841025">
        <ele>133.6</ele>
        <time>2017-07-13T09:49:49Z</time>
      </trkpt>
      <trkpt lat="59.612154188249" lon="14.922568646474">
        <ele>134.2</ele>
        <time>2017-07-13T09:49:51Z</time>
      </trkpt>
      <trkpt lat="59.612177070836" lon="14.922562443868">
        <ele>134.6</ele>
        <time>2017-07-13T09:49:52Z</time>
      </trkpt>
      <trkpt lat="59.612202551812" lon="14.922549368104">
        <ele>135</ele>
        <time>2017-07-13T09:49:53Z</time>
      </trkpt>
      <trkpt lat="59.612223003648" lon="14.922530508829">
        <ele>135.4</ele>
        <time>2017-07-13T09:49:54Z</time>
      </trkpt>
      <trkpt lat="59.612244880407" lon="14.922520785825">
        <ele>136</ele>
        <time>2017-07-13T09:49:55Z</time>
      </trkpt>
      <trkpt lat="59.612272959772" lon="14.922515756685">
        <ele>136</ele>
        <time>2017-07-13T09:49:56Z</time>
      </trkpt>
      <trkpt lat="59.612366250319" lon="14.922439732852">
        <ele>136</ele>
        <time>2017-07-13T09:50:00Z</time>
      </trkpt>
      <trkpt lat="59.612444369627" lon="14.922370917453">
        <ele>136</ele>
        <time>2017-07-13T09:50:04Z</time>
      </trkpt>
      <trkpt lat="59.61246255835" lon="14.922323811175">
        <ele>136</ele>
        <time>2017-07-13T09:50:06Z</time>
      </trkpt>
      <trkpt lat="59.612486782041" lon="14.922286930815">
        <ele>136</ele>
        <time>2017-07-13T09:50:08Z</time>
      </trkpt>
      <trkpt lat="59.612576803647" lon="14.922151311673">
        <ele>136</ele>
        <time>2017-07-13T09:50:13Z</time>
      </trkpt>
      <trkpt lat="59.61266707671" lon="14.921954085566">
        <ele>136</ele>
        <time>2017-07-13T09:50:18Z</time>
      </trkpt>
      <trkpt lat="59.612751901538" lon="14.921722493669">
        <ele>136</ele>
        <time>2017-07-13T09:50:24Z</time>
      </trkpt>
      <trkpt lat="59.61276933589" lon="14.921688630793">
        <ele>136.4</ele>
        <time>2017-07-13T09:50:25Z</time>
      </trkpt>
      <trkpt lat="59.612781489645" lon="14.921662814541">
        <ele>136.8</ele>
        <time>2017-07-13T09:50:26Z</time>
      </trkpt>
      <trkpt lat="59.612788530441" lon="14.921637165927">
        <ele>137.2</ele>
        <time>2017-07-13T09:50:27Z</time>
      </trkpt>
      <trkpt lat="59.612798756359" lon="14.921615708263">
        <ele>137.6</ele>
        <time>2017-07-13T09:50:28Z</time>
      </trkpt>
      <trkpt lat="59.612809149915" lon="14.921596346074">
        <ele>138</ele>
        <time>2017-07-13T09:50:29Z</time>
      </trkpt>
      <trkpt lat="59.612816525987" lon="14.921578408808">
        <ele>138</ele>
        <time>2017-07-13T09:50:30Z</time>
      </trkpt>
      <trkpt lat="59.612834882348" lon="14.921503223165">
        <ele>138</ele>
        <time>2017-07-13T09:50:34Z</time>
      </trkpt>
      <trkpt lat="59.612865308645" lon="14.921462235674">
        <ele>138</ele>
        <time>2017-07-13T09:50:36Z</time>
      </trkpt>
      <trkpt lat="59.612895651123" lon="14.921417560147">
        <ele>138</ele>
        <time>2017-07-13T09:50:38Z</time>
      </trkpt>
      <trkpt lat="59.612959437382" lon="14.921364083625">
        <ele>138</ele>
        <time>2017-07-13T09:50:42Z</time>
      </trkpt>
      <trkpt lat="59.612996736837" lon="14.921355785544">
        <ele>138</ele>
        <time>2017-07-13T09:50:45Z</time>
      </trkpt>
      <trkpt lat="59.613036047948" lon="14.921351846051">
        <ele>138</ele>
        <time>2017-07-13T09:50:48Z</time>
      </trkpt>
      <trkpt lat="59.61304845316" lon="14.921359222123">
        <ele>138</ele>
        <time>2017-07-13T09:50:49Z</time>
      </trkpt>
      <trkpt lat="59.613085920253" lon="14.921367101109">
        <ele>138</ele>
        <time>2017-07-13T09:50:52Z</time>
      </trkpt>
      <trkpt lat="59.613103186967" lon="14.921371627335">
        <ele>138</ele>
        <time>2017-07-13T09:50:53Z</time>
      </trkpt>
      <trkpt lat="59.613169571615" lon="14.921421332002">
        <ele>138</ele>
        <time>2017-07-13T09:50:57Z</time>
      </trkpt>
      <trkpt lat="59.613194382039" lon="14.921445890969">
        <ele>138</ele>
        <time>2017-07-13T09:50:59Z</time>
      </trkpt>
      <trkpt lat="59.61325213333" lon="14.921487213736">
        <ele>138</ele>
        <time>2017-07-13T09:51:04Z</time>
      </trkpt>
      <trkpt lat="59.613341652022" lon="14.921600956119">
        <ele>138</ele>
        <time>2017-07-13T09:51:10Z</time>
      </trkpt>
      <trkpt lat="59.613374341432" lon="14.921640770144">
        <ele>138.4</ele>
        <time>2017-07-13T09:51:12Z</time>
      </trkpt>
      <trkpt lat="59.613384483531" lon="14.9216511637">
        <ele>138.8</ele>
        <time>2017-07-13T09:51:13Z</time>
      </trkpt>
      <trkpt lat="59.613402336978" lon="14.921669017147">
        <ele>139.2</ele>
        <time>2017-07-13T09:51:14Z</time>
      </trkpt>
      <trkpt lat="59.613423878461" lon="14.921685194214">
        <ele>139.8</ele>
        <time>2017-07-13T09:51:15Z</time>
      </trkpt>
      <trkpt lat="59.613436618949" lon="14.921702460928">
        <ele>140.2</ele>
        <time>2017-07-13T09:51:16Z</time>
      </trkpt>
      <trkpt lat="59.613494789335" lon="14.921776976019">
        <ele>140.2</ele>
        <time>2017-07-13T09:51:20Z</time>
      </trkpt>
      <trkpt lat="59.613553797911" lon="14.921839924088">
        <ele>140.2</ele>
        <time>2017-07-13T09:51:24Z</time>
      </trkpt>
      <trkpt lat="59.613678185307" lon="14.921949391702">
        <ele>140.2</ele>
        <time>2017-07-13T09:51:31Z</time>
      </trkpt>
      <trkpt lat="59.613791257138" lon="14.922053411081">
        <ele>140.2</ele>
        <time>2017-07-13T09:51:37Z</time>
      </trkpt>
      <trkpt lat="59.613831238801" lon="14.922059278411">
        <ele>140.2</ele>
        <time>2017-07-13T09:51:40Z</time>
      </trkpt>
      <trkpt lat="59.613870633731" lon="14.922085765215">
        <ele>140.2</ele>
        <time>2017-07-13T09:52:17Z</time>
      </trkpt>
      <trkpt lat="59.613899970381" lon="14.922097835151">
        <ele>140.2</ele>
        <time>2017-07-13T09:52:18Z</time>
      </trkpt>
      <trkpt lat="59.613961409708" lon="14.922122813213">
        <ele>140.2</ele>
        <time>2017-07-13T09:52:21Z</time>
      </trkpt>
      <trkpt lat="59.614030392745" lon="14.922127674715">
        <ele>140.6</ele>
        <time>2017-07-13T09:52:24Z</time>
      </trkpt>
      <trkpt lat="59.614054113522" lon="14.922135972796">
        <ele>141</ele>
        <time>2017-07-13T09:52:25Z</time>
      </trkpt>
      <trkpt lat="59.614075906462" lon="14.922141337212">
        <ele>141.4</ele>
        <time>2017-07-13T09:52:26Z</time>
      </trkpt>
      <trkpt lat="59.614094765737" lon="14.922142091583">
        <ele>141.8</ele>
        <time>2017-07-13T09:52:27Z</time>
      </trkpt>
      <trkpt lat="59.614119408523" lon="14.922144689972">
        <ele>142.2</ele>
        <time>2017-07-13T09:52:28Z</time>
      </trkpt>
      <trkpt lat="59.614168275" lon="14.922136810986">
        <ele>142.2</ele>
        <time>2017-07-13T09:52:31Z</time>
      </trkpt>
      <trkpt lat="59.614191073768" lon="14.922129267276">
        <ele>142.2</ele>
        <time>2017-07-13T09:52:33Z</time>
      </trkpt>
      <trkpt lat="59.614261900823" lon="14.922099008617">
        <ele>142.2</ele>
        <time>2017-07-13T09:52:38Z</time>
      </trkpt>
      <trkpt lat="59.614295596061" lon="14.922069001415">
        <ele>142.2</ele>
        <time>2017-07-13T09:52:41Z</time>
      </trkpt>
      <trkpt lat="59.614341025959" lon="14.922042011697">
        <ele>142.2</ele>
        <time>2017-07-13T09:52:44Z</time>
      </trkpt>
      <trkpt lat="59.614458540197" lon="14.921957857421">
        <ele>142.2</ele>
        <time>2017-07-13T09:52:51Z</time>
      </trkpt>
      <trkpt lat="59.614500701154" lon="14.92191854631">
        <ele>142.2</ele>
        <time>2017-07-13T09:52:55Z</time>
      </trkpt>
      <trkpt lat="59.614493660358" lon="14.921923994545">
        <ele>142.2</ele>
        <time>2017-07-13T09:53:06Z</time>
      </trkpt>
      <trkpt lat="59.614417887982" lon="14.921971939013">
        <ele>142.2</ele>
        <time>2017-07-13T09:53:11Z</time>
      </trkpt>
      <trkpt lat="59.61438033707" lon="14.921986774976">
        <ele>142.2</ele>
        <time>2017-07-13T09:53:13Z</time>
      </trkpt>
      <trkpt lat="59.614302720676" lon="14.922021476042">
        <ele>142.2</ele>
        <time>2017-07-13T09:53:17Z</time>
      </trkpt>
      <trkpt lat="59.614188894474" lon="14.922058943135">
        <ele>142.2</ele>
        <time>2017-07-13T09:53:23Z</time>
      </trkpt>
      <trkpt lat="59.61406853039" lon="14.922089117975">
        <ele>142.2</ele>
        <time>2017-07-13T09:53:29Z</time>
      </trkpt>
      <trkpt lat="59.613909944842" lon="14.922018542377">
        <ele>141.8</ele>
        <time>2017-07-13T09:53:36Z</time>
      </trkpt>
      <trkpt lat="59.613893097223" lon="14.9220032035">
        <ele>141.4</ele>
        <time>2017-07-13T09:53:37Z</time>
      </trkpt>
      <trkpt lat="59.613874154129" lon="14.921990127736">
        <ele>141</ele>
        <time>2017-07-13T09:53:38Z</time>
      </trkpt>
      <trkpt lat="59.613855965406" lon="14.921977722524">
        <ele>140.4</ele>
        <time>2017-07-13T09:53:39Z</time>
      </trkpt>
      <trkpt lat="59.61383635176" lon="14.921954923756">
        <ele>140</ele>
        <time>2017-07-13T09:53:40Z</time>
      </trkpt>
      <trkpt lat="59.613802405065" lon="14.92190345889">
        <ele>140</ele>
        <time>2017-07-13T09:53:42Z</time>
      </trkpt>
      <trkpt lat="59.613686399569" lon="14.921760798952">
        <ele>140</ele>
        <time>2017-07-13T09:53:48Z</time>
      </trkpt>
      <trkpt lat="59.613619595826" lon="14.9216763094">
        <ele>140</ele>
        <time>2017-07-13T09:53:52Z</time>
      </trkpt>
      <trkpt lat="59.613541979432" lon="14.92157153565">
        <ele>140</ele>
        <time>2017-07-13T09:53:57Z</time>
      </trkpt>
      <trkpt lat="59.613493196774" lon="14.9214919076">
        <ele>139.6</ele>
        <time>2017-07-13T09:54:01Z</time>
      </trkpt>
      <trkpt lat="59.613477354983" lon="14.921486627003">
        <ele>139.2</ele>
        <time>2017-07-13T09:54:02Z</time>
      </trkpt>
      <trkpt lat="59.613460675002" lon="14.921470785212">
        <ele>138.8</ele>
        <time>2017-07-13T09:54:03Z</time>
      </trkpt>
      <trkpt lat="59.613451203455" lon="14.921463073864">
        <ele>138.4</ele>
        <time>2017-07-13T09:54:04Z</time>
      </trkpt>
      <trkpt lat="59.613447683057" lon="14.921466510443">
        <ele>138</ele>
        <time>2017-07-13T09:54:05Z</time>
      </trkpt>
      <trkpt lat="59.613400325322" lon="14.921430049178">
        <ele>138</ele>
        <time>2017-07-13T09:54:08Z</time>
      </trkpt>
      <trkpt lat="59.613355733614" lon="14.921404149107">
        <ele>138</ele>
        <time>2017-07-13T09:54:11Z</time>
      </trkpt>
      <trkpt lat="59.613279206867" lon="14.921380931244">
        <ele>138</ele>
        <time>2017-07-13T09:54:15Z</time>
      </trkpt>
      <trkpt lat="59.613205027052" lon="14.921393420275">
        <ele>138</ele>
        <time>2017-07-13T09:54:18Z</time>
      </trkpt>
      <trkpt lat="59.6130702461" lon="14.921419907079">
        <ele>138</ele>
        <time>2017-07-13T09:54:23Z</time>
      </trkpt>
      <trkpt lat="59.612930436008" lon="14.921512610893">
        <ele>138</ele>
        <time>2017-07-13T09:54:29Z</time>
      </trkpt>
      <trkpt lat="59.612842006963" lon="14.921623754887">
        <ele>137.4</ele>
        <time>2017-07-13T09:54:34Z</time>
      </trkpt>
      <trkpt lat="59.612826248991" lon="14.921649235863">
        <ele>137</ele>
        <time>2017-07-13T09:54:35Z</time>
      </trkpt>
      <trkpt lat="59.612806635345" lon="14.921673040459">
        <ele>136.6</ele>
        <time>2017-07-13T09:54:36Z</time>
      </trkpt>
      <trkpt lat="59.612798923997" lon="14.921685194214">
        <ele>136.2</ele>
        <time>2017-07-13T09:54:37Z</time>
      </trkpt>
      <trkpt lat="59.61277855598" lon="14.921701874195">
        <ele>135.8</ele>
        <time>2017-07-13T09:54:38Z</time>
      </trkpt>
      <trkpt lat="59.612760534895" lon="14.921719643823">
        <ele>135.8</ele>
        <time>2017-07-13T09:54:39Z</time>
      </trkpt>
      <trkpt lat="59.612690713668" lon="14.921927095848">
        <ele>135.8</ele>
        <time>2017-07-13T09:54:44Z</time>
      </trkpt>
      <trkpt lat="59.612571439231" lon="14.922226329678">
        <ele>135.8</ele>
        <time>2017-07-13T09:54:50Z</time>
      </trkpt>
      <trkpt lat="59.612544952427" lon="14.922270083196">
        <ele>135.8</ele>
        <time>2017-07-13T09:54:51Z</time>
      </trkpt>
      <trkpt lat="59.612409417104" lon="14.922451802788">
        <ele>135.4</ele>
        <time>2017-07-13T09:54:56Z</time>
      </trkpt>
      <trkpt lat="59.612380583368" lon="14.922498070876">
        <ele>135</ele>
        <time>2017-07-13T09:54:57Z</time>
      </trkpt>
      <trkpt lat="59.612350743804" lon="14.922529419182">
        <ele>134.6</ele>
        <time>2017-07-13T09:54:58Z</time>
      </trkpt>
      <trkpt lat="59.612323083534" lon="14.922556744176">
        <ele>134.2</ele>
        <time>2017-07-13T09:54:59Z</time>
      </trkpt>
      <trkpt lat="59.612296764368" lon="14.92257401089">
        <ele>133.8</ele>
        <time>2017-07-13T09:55:00Z</time>
      </trkpt>
      <trkpt lat="59.612241862923" lon="14.922598821314">
        <ele>133.8</ele>
        <time>2017-07-13T09:55:02Z</time>
      </trkpt>
      <trkpt lat="59.612166761099" lon="14.922637126597">
        <ele>133.8</ele>
        <time>2017-07-13T09:55:05Z</time>
      </trkpt>
      <trkpt lat="59.612115128595" lon="14.922655818234">
        <ele>133.8</ele>
        <time>2017-07-13T09:55:07Z</time>
      </trkpt>
      <trkpt lat="59.612060981521" lon="14.922693620603">
        <ele>133.8</ele>
        <time>2017-07-13T09:55:09Z</time>
      </trkpt>
      <trkpt lat="59.611955788676" lon="14.922774757395">
        <ele>133.8</ele>
        <time>2017-07-13T09:55:13Z</time>
      </trkpt>
      <trkpt lat="59.611761915329" lon="14.922875843109">
        <ele>133.8</ele>
        <time>2017-07-13T09:55:18Z</time>
      </trkpt>
      <trkpt lat="59.611723861503" lon="14.922897636049">
        <ele>133.4</ele>
        <time>2017-07-13T09:55:19Z</time>
      </trkpt>
      <trkpt lat="59.611686059134" lon="14.922921692102">
        <ele>132.8</ele>
        <time>2017-07-13T09:55:20Z</time>
      </trkpt>
      <trkpt lat="59.611649346412" lon="14.922942395395">
        <ele>132.4</ele>
        <time>2017-07-13T09:55:21Z</time>
      </trkpt>
      <trkpt lat="59.611607856007" lon="14.922959662109">
        <ele>132</ele>
        <time>2017-07-13T09:55:22Z</time>
      </trkpt>
      <trkpt lat="59.611571730018" lon="14.922978772841">
        <ele>131.6</ele>
        <time>2017-07-13T09:55:23Z</time>
      </trkpt>
      <trkpt lat="59.611504842456" lon="14.923007522758">
        <ele>131.6</ele>
        <time>2017-07-13T09:55:25Z</time>
      </trkpt>
      <trkpt lat="59.611290433454" lon="14.923148925411">
        <ele>131.6</ele>
        <time>2017-07-13T09:55:32Z</time>
      </trkpt>
      <trkpt lat="59.6111088815" lon="14.923262500156">
        <ele>131.6</ele>
        <time>2017-07-13T09:55:39Z</time>
      </trkpt>
      <trkpt lat="59.611050375838" lon="14.923304661113">
        <ele>131.2</ele>
        <time>2017-07-13T09:55:41Z</time>
      </trkpt>
      <trkpt lat="59.61102087155" lon="14.923324023302">
        <ele>130.8</ele>
        <time>2017-07-13T09:55:42Z</time>
      </trkpt>
      <trkpt lat="59.61098902033" lon="14.923342295844">
        <ele>130.4</ele>
        <time>2017-07-13T09:55:43Z</time>
      </trkpt>
      <trkpt lat="59.610961862974" lon="14.92336693863">
        <ele>130</ele>
        <time>2017-07-13T09:55:44Z</time>
      </trkpt>
      <trkpt lat="59.610931604315" lon="14.923382361326">
        <ele>129.4</ele>
        <time>2017-07-13T09:55:45Z</time>
      </trkpt>
      <trkpt lat="59.610732785647" lon="14.92349182894">
        <ele>129.4</ele>
        <time>2017-07-13T09:55:51Z</time>
      </trkpt>
      <trkpt lat="59.610469174892" lon="14.923639601837">
        <ele>129.4</ele>
        <time>2017-07-13T09:55:57Z</time>
      </trkpt>
      <trkpt lat="59.610266165274" lon="14.923739430266">
        <ele>129</ele>
        <time>2017-07-13T09:56:02Z</time>
      </trkpt>
      <trkpt lat="59.610225093964" lon="14.923759965921">
        <ele>128.6</ele>
        <time>2017-07-13T09:56:03Z</time>
      </trkpt>
      <trkpt lat="59.610183435921" lon="14.923778070825">
        <ele>128.2</ele>
        <time>2017-07-13T09:56:04Z</time>
      </trkpt>
      <trkpt lat="59.610143370439" lon="14.92380195924">
        <ele>127.8</ele>
        <time>2017-07-13T09:56:05Z</time>
      </trkpt>
      <trkpt lat="59.61010137712" lon="14.923829284234">
        <ele>127.4</ele>
        <time>2017-07-13T09:56:06Z</time>
      </trkpt>
      <trkpt lat="59.609794683399" lon="14.923996000225">
        <ele>127.4</ele>
        <time>2017-07-13T09:56:14Z</time>
      </trkpt>
      <trkpt lat="59.609532749024" lon="14.92414477895">
        <ele>127.4</ele>
        <time>2017-07-13T09:56:21Z</time>
      </trkpt>
      <trkpt lat="59.609263773853" lon="14.924304454145">
        <ele>127.4</ele>
        <time>2017-07-13T09:56:28Z</time>
      </trkpt>
      <trkpt lat="59.609056740923" lon="14.924408389705">
        <ele>127.4</ele>
        <time>2017-07-13T09:56:35Z</time>
      </trkpt>
      <trkpt lat="59.608977196692" lon="14.924444599513">
        <ele>126.8</ele>
        <time>2017-07-13T09:56:38Z</time>
      </trkpt>
      <trkpt lat="59.608953224458" lon="14.924450802119">
        <ele>126.4</ele>
        <time>2017-07-13T09:56:39Z</time>
      </trkpt>
      <trkpt lat="59.608933024079" lon="14.924460608942">
        <ele>126</ele>
        <time>2017-07-13T09:56:40Z</time>
      </trkpt>
      <trkpt lat="59.608917182288" lon="14.924472427421">
        <ele>125.6</ele>
        <time>2017-07-13T09:56:41Z</time>
      </trkpt>
      <trkpt lat="59.608901424316" lon="14.924482653339">
        <ele>125.2</ele>
        <time>2017-07-13T09:56:42Z</time>
      </trkpt>
      <trkpt lat="59.608876027159" lon="14.924490699963">
        <ele>125.2</ele>
        <time>2017-07-13T09:56:46Z</time>
      </trkpt>
      <trkpt lat="59.608821628628" lon="14.92451274436">
        <ele>125.2</ele>
        <time>2017-07-13T09:57:06Z</time>
      </trkpt>
      <trkpt lat="59.608688943151" lon="14.924567981081">
        <ele>125.2</ele>
        <time>2017-07-13T09:57:13Z</time>
      </trkpt>
      <trkpt lat="59.608535554381" lon="14.92461667992">
        <ele>125.2</ele>
        <time>2017-07-13T09:57:20Z</time>
      </trkpt>
      <trkpt lat="59.60832022337" lon="14.92470468987">
        <ele>125.2</ele>
        <time>2017-07-13T09:57:29Z</time>
      </trkpt>
      <trkpt lat="59.608171193188" lon="14.924743917162">
        <ele>125.2</ele>
        <time>2017-07-13T09:57:35Z</time>
      </trkpt>
      <trkpt lat="59.608031383096" lon="14.92480694905">
        <ele>125.2</ele>
        <time>2017-07-13T09:57:41Z</time>
      </trkpt>
      <trkpt lat="59.60788604095" lon="14.924853133319">
        <ele>124.8</ele>
        <time>2017-07-13T09:57:46Z</time>
      </trkpt>
      <trkpt lat="59.607857458671" lon="14.924862688685">
        <ele>124.4</ele>
        <time>2017-07-13T09:57:47Z</time>
      </trkpt>
      <trkpt lat="59.607824350166" lon="14.924872160232">
        <ele>124</ele>
        <time>2017-07-13T09:57:48Z</time>
      </trkpt>
      <trkpt lat="59.60779886919" lon="14.924893869353">
        <ele>123.6</ele>
        <time>2017-07-13T09:57:49Z</time>
      </trkpt>
      <trkpt lat="59.607761066821" lon="14.924905771651">
        <ele>123.2</ele>
        <time>2017-07-13T09:57:50Z</time>
      </trkpt>
      <trkpt lat="59.607719576416" lon="14.924924463288">
        <ele>123.2</ele>
        <time>2017-07-13T09:57:51Z</time>
      </trkpt>
      <trkpt lat="59.607502904301" lon="14.924992524316">
        <ele>122.8</ele>
        <time>2017-07-13T09:57:56Z</time>
      </trkpt>
      <trkpt lat="59.607462671181" lon="14.925008617564">
        <ele>122.4</ele>
        <time>2017-07-13T09:57:57Z</time>
      </trkpt>
      <trkpt lat="59.607423192432" lon="14.925025884278">
        <ele>122</ele>
        <time>2017-07-13T09:57:58Z</time>
      </trkpt>
      <trkpt lat="59.607382791674" lon="14.925030829599">
        <ele>121.6</ele>
        <time>2017-07-13T09:57:59Z</time>
      </trkpt>
      <trkpt lat="59.607340211622" lon="14.925049856512">
        <ele>121</ele>
        <time>2017-07-13T09:58:00Z</time>
      </trkpt>
      <trkpt lat="59.60718531411" lon="14.925093358573">
        <ele>121</ele>
        <time>2017-07-13T09:58:04Z</time>
      </trkpt>
      <trkpt lat="59.607159078763" lon="14.925100734645">
        <ele>120.6</ele>
        <time>2017-07-13T09:58:05Z</time>
      </trkpt>
      <trkpt lat="59.607131837588" lon="14.925104255043">
        <ele>120.2</ele>
        <time>2017-07-13T09:58:06Z</time>
      </trkpt>
      <trkpt lat="59.607104764051" lon="14.925114229504">
        <ele>119.8</ele>
        <time>2017-07-13T09:58:07Z</time>
      </trkpt>
      <trkpt lat="59.607079199256" lon="14.925120935024">
        <ele>119.4</ele>
        <time>2017-07-13T09:58:08Z</time>
      </trkpt>
      <trkpt lat="59.607050700796" lon="14.925124287784">
        <ele>119</ele>
        <time>2017-07-13T09:58:09Z</time>
      </trkpt>
      <trkpt lat="59.606921954812" lon="14.925173489537">
        <ele>118.6</ele>
        <time>2017-07-13T09:58:14Z</time>
      </trkpt>
      <trkpt lat="59.606896892931" lon="14.92518161998">
        <ele>118.2</ele>
        <time>2017-07-13T09:58:15Z</time>
      </trkpt>
      <trkpt lat="59.606879207122" lon="14.925199389608">
        <ele>117.8</ele>
        <time>2017-07-13T09:58:16Z</time>
      </trkpt>
      <trkpt lat="59.606858922924" lon="14.925224200032">
        <ele>117.2</ele>
        <time>2017-07-13T09:58:17Z</time>
      </trkpt>
      <trkpt lat="59.606842410581" lon="14.92525957165">
        <ele>116.8</ele>
        <time>2017-07-13T09:58:18Z</time>
      </trkpt>
      <trkpt lat="59.606808296248" lon="14.925321430072">
        <ele>116.8</ele>
        <time>2017-07-13T09:58:20Z</time>
      </trkpt>
      <trkpt lat="59.606787592955" lon="14.925328638506">
        <ele>116.8</ele>
        <time>2017-07-13T09:58:21Z</time>
      </trkpt>
      <trkpt lat="59.606762614893" lon="14.925362417563">
        <ele>116.8</ele>
        <time>2017-07-13T09:58:24Z</time>
      </trkpt>
      <trkpt lat="59.60676370454" lon="14.925361747011">
        <ele>116.8</ele>
        <time>2017-07-13T09:58:25Z</time>
      </trkpt>
      <trkpt lat="59.606745348179" lon="14.925452606807">
        <ele>116.8</ele>
        <time>2017-07-13T09:58:31Z</time>
      </trkpt>
      <trkpt lat="59.606743168885" lon="14.925486888778">
        <ele>116.8</ele>
        <time>2017-07-13T09:58:32Z</time>
      </trkpt>
      <trkpt lat="59.606675359314" lon="14.925600128247">
        <ele>116.8</ele>
        <time>2017-07-13T09:58:37Z</time>
      </trkpt>
      <trkpt lat="59.606641496438" lon="14.925687719102">
        <ele>116.8</ele>
        <time>2017-07-13T09:58:40Z</time>
      </trkpt>
      <trkpt lat="59.606593635789" lon="14.925778662717">
        <ele>116.8</ele>
        <time>2017-07-13T09:58:43Z</time>
      </trkpt>
      <trkpt lat="59.606477295017" lon="14.925899864991">
        <ele>116.8</ele>
        <time>2017-07-13T09:58:48Z</time>
      </trkpt>
      <trkpt lat="59.606459106294" lon="14.925930207469">
        <ele>116.4</ele>
        <time>2017-07-13T09:58:49Z</time>
      </trkpt>
      <trkpt lat="59.606432535671" lon="14.92596113668">
        <ele>116</ele>
        <time>2017-07-13T09:58:50Z</time>
      </trkpt>
      <trkpt lat="59.606413760215" lon="14.92597119496">
        <ele>115.4</ele>
        <time>2017-07-13T09:58:51Z</time>
      </trkpt>
      <trkpt lat="59.606384255927" lon="14.925987707303">
        <ele>115</ele>
        <time>2017-07-13T09:58:52Z</time>
      </trkpt>
      <trkpt lat="59.60636221153" lon="14.926008997329">
        <ele>114.6</ele>
        <time>2017-07-13T09:58:53Z</time>
      </trkpt>
      <trkpt lat="59.606224832189" lon="14.926084182972">
        <ele>114.6</ele>
        <time>2017-07-13T09:58:58Z</time>
      </trkpt>
      <trkpt lat="59.606081501699" lon="14.926215694983">
        <ele>114.6</ele>
        <time>2017-07-13T09:59:04Z</time>
      </trkpt>
      <trkpt lat="59.605932471517" lon="14.926374112893">
        <ele>114.6</ele>
        <time>2017-07-13T09:59:11Z</time>
      </trkpt>
      <trkpt lat="59.605824680283" lon="14.92659061737">
        <ele>114.6</ele>
        <time>2017-07-13T09:59:17Z</time>
      </trkpt>
      <trkpt lat="59.605716972868" lon="14.926868561174">
        <ele>114.6</ele>
        <time>2017-07-13T09:59:24Z</time>
      </trkpt>
      <trkpt lat="59.605702220724" lon="14.926908207561">
        <ele>114.2</ele>
        <time>2017-07-13T09:59:25Z</time>
      </trkpt>
      <trkpt lat="59.605685205467" lon="14.926956738762">
        <ele>113.8</ele>
        <time>2017-07-13T09:59:26Z</time>
      </trkpt>
      <trkpt lat="59.605673554626" lon="14.927012143121">
        <ele>113.4</ele>
        <time>2017-07-13T09:59:27Z</time>
      </trkpt>
      <trkpt lat="59.60565729374" lon="14.927064446177">
        <ele>113</ele>
        <time>2017-07-13T09:59:28Z</time>
      </trkpt>
      <trkpt lat="59.605642709234" lon="14.927119599079">
        <ele>112.6</ele>
        <time>2017-07-13T09:59:29Z</time>
      </trkpt>
      <trkpt lat="59.605629968746" lon="14.927173829972">
        <ele>112.6</ele>
        <time>2017-07-13T09:59:30Z</time>
      </trkpt>
      <trkpt lat="59.605582191916" lon="14.927321267593">
        <ele>112.2</ele>
        <time>2017-07-13T09:59:33Z</time>
      </trkpt>
      <trkpt lat="59.605571295446" lon="14.927365775482">
        <ele>111.6</ele>
        <time>2017-07-13T09:59:34Z</time>
      </trkpt>
      <trkpt lat="59.605561069528" lon="14.927411456837">
        <ele>111.2</ele>
        <time>2017-07-13T09:59:35Z</time>
      </trkpt>
      <trkpt lat="59.60554665266" lon="14.927456048545">
        <ele>110.8</ele>
        <time>2017-07-13T09:59:36Z</time>
      </trkpt>
      <trkpt lat="59.605533744534" lon="14.927510866171">
        <ele>110.4</ele>
        <time>2017-07-13T09:59:37Z</time>
      </trkpt>
      <trkpt lat="59.605465012954" lon="14.92779174364">
        <ele>109.6</ele>
        <time>2017-07-13T09:59:42Z</time>
      </trkpt>
      <trkpt lat="59.60545277538" lon="14.927843459963">
        <ele>109.2</ele>
        <time>2017-07-13T09:59:43Z</time>
      </trkpt>
      <trkpt lat="59.605440034892" lon="14.927899367236">
        <ele>108.8</ele>
        <time>2017-07-13T09:59:44Z</time>
      </trkpt>
      <trkpt lat="59.605423606368" lon="14.927948149894">
        <ele>108.4</ele>
        <time>2017-07-13T09:59:45Z</time>
      </trkpt>
      <trkpt lat="59.605347331078" lon="14.92822005873">
        <ele>108.4</ele>
        <time>2017-07-13T09:59:51Z</time>
      </trkpt>
      <trkpt lat="59.605318329704" lon="14.928318797512">
        <ele>108</ele>
        <time>2017-07-13T09:59:54Z</time>
      </trkpt>
      <trkpt lat="59.605302152637" lon="14.928353582397">
        <ele>107.6</ele>
        <time>2017-07-13T09:59:55Z</time>
      </trkpt>
      <trkpt lat="59.605286394665" lon="14.928393312603">
        <ele>107</ele>
        <time>2017-07-13T09:59:56Z</time>
      </trkpt>
      <trkpt lat="59.605278348041" lon="14.928426421108">
        <ele>106.6</ele>
        <time>2017-07-13T09:59:57Z</time>
      </trkpt>
      <trkpt lat="59.605262925345" lon="14.928451985903">
        <ele>106.2</ele>
        <time>2017-07-13T09:59:58Z</time>
      </trkpt>
      <trkpt lat="59.605254040531" lon="14.928464558753">
        <ele>106.2</ele>
        <time>2017-07-13T10:00:00Z</time>
      </trkpt>
      <trkpt lat="59.605251106866" lon="14.928491883747">
        <ele>106.2</ele>
        <time>2017-07-13T10:00:12Z</time>
      </trkpt>
      <trkpt lat="59.605245071898" lon="14.928713585002">
        <ele>106.2</ele>
        <time>2017-07-13T10:00:18Z</time>
      </trkpt>
      <trkpt lat="59.605240629491" lon="14.928922545769">
        <ele>106.2</ele>
        <time>2017-07-13T10:00:24Z</time>
      </trkpt>
      <trkpt lat="59.605238534016" lon="14.928978536861">
        <ele>105.8</ele>
        <time>2017-07-13T10:00:26Z</time>
      </trkpt>
      <trkpt lat="59.605237528188" lon="14.92897526792">
        <ele>105.4</ele>
        <time>2017-07-13T10:00:27Z</time>
      </trkpt>
      <trkpt lat="59.605242222052" lon="14.928998485783">
        <ele>104.2</ele>
        <time>2017-07-13T10:00:48Z</time>
      </trkpt>
      <trkpt lat="59.605247586468" lon="14.929026648967">
        <ele>104.2</ele>
        <time>2017-07-13T10:00:49Z</time>
      </trkpt>
      <trkpt lat="59.605323358844" lon="14.929114072184">
        <ele>104.2</ele>
        <time>2017-07-13T10:00:55Z</time>
      </trkpt>
      <trkpt lat="59.605387480379" lon="14.929148940888">
        <ele>104.2</ele>
        <time>2017-07-13T10:00:58Z</time>
      </trkpt>
      <trkpt lat="59.605411368794" lon="14.929149192345">
        <ele>104.2</ele>
        <time>2017-07-13T10:00:59Z</time>
      </trkpt>
      <trkpt lat="59.605534834181" lon="14.929190347474">
        <ele>104.2</ele>
        <time>2017-07-13T10:01:04Z</time>
      </trkpt>
      <trkpt lat="59.605690569883" lon="14.929290846455">
        <ele>104.2</ele>
        <time>2017-07-13T10:01:10Z</time>
      </trkpt>
      <trkpt lat="59.605742370025" lon="14.929316243612">
        <ele>104.2</ele>
        <time>2017-07-13T10:01:12Z</time>
      </trkpt>
      <trkpt lat="59.605869607267" lon="14.929408109236">
        <ele>104.2</ele>
        <time>2017-07-13T10:01:18Z</time>
      </trkpt>
      <trkpt lat="59.606051578316" lon="14.92955026626">
        <ele>104.2</ele>
        <time>2017-07-13T10:01:26Z</time>
      </trkpt>
      <trkpt lat="59.606223407266" lon="14.929697452424">
        <ele>104.2</ele>
        <time>2017-07-13T10:01:34Z</time>
      </trkpt>
      <trkpt lat="59.606355589829" lon="14.92980004688">
        <ele>104.2</ele>
        <time>2017-07-13T10:01:41Z</time>
      </trkpt>
      <trkpt lat="59.606468577841" lon="14.929878501464">
        <ele>104.2</ele>
        <time>2017-07-13T10:01:47Z</time>
      </trkpt>
      <trkpt lat="59.606651806175" lon="14.930027699284">
        <ele>104.2</ele>
        <time>2017-07-13T10:01:56Z</time>
      </trkpt>
      <trkpt lat="59.606822545478" lon="14.930154768888">
        <ele>104.2</ele>
        <time>2017-07-13T10:02:03Z</time>
      </trkpt>
      <trkpt lat="59.606895551827" lon="14.930221907907">
        <ele>103.8</ele>
        <time>2017-07-13T10:02:06Z</time>
      </trkpt>
      <trkpt lat="59.606917428586" lon="14.930240431906">
        <ele>103.4</ele>
        <time>2017-07-13T10:02:07Z</time>
      </trkpt>
      <trkpt lat="59.606943328657" lon="14.930249065263">
        <ele>103</ele>
        <time>2017-07-13T10:02:08Z</time>
      </trkpt>
      <trkpt lat="59.606968390538" lon="14.930262308665">
        <ele>102.6</ele>
        <time>2017-07-13T10:02:09Z</time>
      </trkpt>
      <trkpt lat="59.606990518754" lon="14.930275049153">
        <ele>102.2</ele>
        <time>2017-07-13T10:02:10Z</time>
      </trkpt>
      <trkpt lat="59.607013066065" lon="14.930288879288">
        <ele>102.2</ele>
        <time>2017-07-13T10:02:11Z</time>
      </trkpt>
      <trkpt lat="59.607209453982" lon="14.930398179264">
        <ele>102.2</ele>
        <time>2017-07-13T10:02:20Z</time>
      </trkpt>
      <trkpt lat="59.607450852702" lon="14.930488955241">
        <ele>102.2</ele>
        <time>2017-07-13T10:02:31Z</time>
      </trkpt>
      <trkpt lat="59.607592506812" lon="14.93053849227">
        <ele>102.2</ele>
        <time>2017-07-13T10:02:37Z</time>
      </trkpt>
      <trkpt lat="59.607691245594" lon="14.930558692649">
        <ele>101.8</ele>
        <time>2017-07-13T10:02:41Z</time>
      </trkpt>
      <trkpt lat="59.607716223656" lon="14.930564895255">
        <ele>101.4</ele>
        <time>2017-07-13T10:02:42Z</time>
      </trkpt>
      <trkpt lat="59.607738268053" lon="14.930568248015">
        <ele>101</ele>
        <time>2017-07-13T10:02:43Z</time>
      </trkpt>
      <trkpt lat="59.607759809536" lon="14.930574618259">
        <ele>100.6</ele>
        <time>2017-07-13T10:02:44Z</time>
      </trkpt>
      <trkpt lat="59.607783111218" lon="14.930581323779">
        <ele>100.2</ele>
        <time>2017-07-13T10:02:45Z</time>
      </trkpt>
      <trkpt lat="59.607978744764" lon="14.930631279903">
        <ele>100.2</ele>
        <time>2017-07-13T10:02:53Z</time>
      </trkpt>
      <trkpt lat="59.608168930075" lon="14.93066254439">
        <ele>100.2</ele>
        <time>2017-07-13T10:03:02Z</time>
      </trkpt>
      <trkpt lat="59.608317792619" lon="14.930680230199">
        <ele>100.2</ele>
        <time>2017-07-13T10:03:10Z</time>
      </trkpt>
      <trkpt lat="59.608453244123" lon="14.930713254885">
        <ele>100.2</ele>
        <time>2017-07-13T10:03:17Z</time>
      </trkpt>
      <trkpt lat="59.608596071699" lon="14.930750638159">
        <ele>100.2</ele>
        <time>2017-07-13T10:03:24Z</time>
      </trkpt>
      <trkpt lat="59.608758680559" lon="14.930771089995">
        <ele>100.2</ele>
        <time>2017-07-13T10:03:32Z</time>
      </trkpt>
      <trkpt lat="59.60887342877" lon="14.930795565143">
        <ele>100.2</ele>
        <time>2017-07-13T10:03:39Z</time>
      </trkpt>
      <trkpt lat="59.608963869471" lon="14.930825656164">
        <ele>99.8</ele>
        <time>2017-07-13T10:03:44Z</time>
      </trkpt>
      <trkpt lat="59.60898071709" lon="14.930828589829">
        <ele>99.2</ele>
        <time>2017-07-13T10:03:45Z</time>
      </trkpt>
      <trkpt lat="59.608998151442" lon="14.930829763295">
        <ele>98.8</ele>
        <time>2017-07-13T10:03:46Z</time>
      </trkpt>
      <trkpt lat="59.60901508288" lon="14.930833199874">
        <ele>98.4</ele>
        <time>2017-07-13T10:03:47Z</time>
      </trkpt>
      <trkpt lat="59.609032852508" lon="14.9308377261">
        <ele>98</ele>
        <time>2017-07-13T10:03:48Z</time>
      </trkpt>
      <trkpt lat="59.609111810006" lon="14.930850382769">
        <ele>98</ele>
        <time>2017-07-13T10:03:52Z</time>
      </trkpt>
      <trkpt lat="59.609246339501" lon="14.930871588976">
        <ele>98</ele>
        <time>2017-07-13T10:04:00Z</time>
      </trkpt>
      <trkpt lat="59.609366787404" lon="14.930892711364">
        <ele>98</ele>
        <time>2017-07-13T10:04:07Z</time>
      </trkpt>
      <trkpt lat="59.609485558927" lon="14.93094333804">
        <ele>98</ele>
        <time>2017-07-13T10:04:14Z</time>
      </trkpt>
      <trkpt lat="59.609503496193" lon="14.930949875922">
        <ele>98</ele>
        <time>2017-07-13T10:04:15Z</time>
      </trkpt>
      <trkpt lat="59.609568791194" lon="14.930956162347">
        <ele>98</ele>
        <time>2017-07-13T10:04:19Z</time>
      </trkpt>
      <trkpt lat="59.609586812279" lon="14.930958509279">
        <ele>98</ele>
        <time>2017-07-13T10:04:20Z</time>
      </trkpt>
      <trkpt lat="59.609750426967" lon="14.930997568933">
        <ele>98</ele>
        <time>2017-07-13T10:04:29Z</time>
      </trkpt>
      <trkpt lat="59.609902809909" lon="14.931023636642">
        <ele>98</ele>
        <time>2017-07-13T10:04:37Z</time>
      </trkpt>
      <trkpt lat="59.61000163251" lon="14.931040651899">
        <ele>98</ele>
        <time>2017-07-13T10:04:43Z</time>
      </trkpt>
      <trkpt lat="59.610116380721" lon="14.931083986322">
        <ele>98</ele>
        <time>2017-07-13T10:04:49Z</time>
      </trkpt>
      <trkpt lat="59.61022375286" lon="14.931090943299">
        <ele>98</ele>
        <time>2017-07-13T10:04:55Z</time>
      </trkpt>
      <trkpt lat="59.610368927368" lon="14.93112438708">
        <ele>98</ele>
        <time>2017-07-13T10:05:02Z</time>
      </trkpt>
      <trkpt lat="59.610550982236" lon="14.931151712074">
        <ele>98</ele>
        <time>2017-07-13T10:05:08Z</time>
      </trkpt>
      <trkpt lat="59.610725409575" lon="14.931184401484">
        <ele>98</ele>
        <time>2017-07-13T10:05:16Z</time>
      </trkpt>
      <trkpt lat="59.610823393986" lon="14.931197477248">
        <ele>98</ele>
        <time>2017-07-13T10:05:21Z</time>
      </trkpt>
      <trkpt lat="59.610846695668" lon="14.931203009302">
        <ele>98</ele>
        <time>2017-07-13T10:05:22Z</time>
      </trkpt>
      <trkpt lat="59.610987427769" lon="14.931232848866">
        <ele>98</ele>
        <time>2017-07-13T10:05:28Z</time>
      </trkpt>
      <trkpt lat="59.611100331962" lon="14.931239051472">
        <ele>98</ele>
        <time>2017-07-13T10:05:33Z</time>
      </trkpt>
      <trkpt lat="59.611209967214" lon="14.931237878006">
        <ele>98</ele>
        <time>2017-07-13T10:05:38Z</time>
      </trkpt>
      <trkpt lat="59.611267634686" lon="14.931240811671">
        <ele>98</ele>
        <time>2017-07-13T10:05:41Z</time>
      </trkpt>
      <trkpt lat="59.611328152004" lon="14.931244751164">
        <ele>98</ele>
        <time>2017-07-13T10:05:44Z</time>
      </trkpt>
      <trkpt lat="59.611435607962" lon="14.931267633751">
        <ele>98</ele>
        <time>2017-07-13T10:05:50Z</time>
      </trkpt>
      <trkpt lat="59.61154809306" lon="14.931277189117">
        <ele>98</ele>
        <time>2017-07-13T10:05:56Z</time>
      </trkpt>
      <trkpt lat="59.611664014737" lon="14.93128615775">
        <ele>98</ele>
        <time>2017-07-13T10:06:03Z</time>
      </trkpt>
      <trkpt lat="59.611774069084" lon="14.931312644554">
        <ele>98</ele>
        <time>2017-07-13T10:06:11Z</time>
      </trkpt>
      <trkpt lat="59.611869371287" lon="14.931311135812">
        <ele>98</ele>
        <time>2017-07-13T10:06:15Z</time>
      </trkpt>
      <trkpt lat="59.612102304288" lon="14.931339298996">
        <ele>98</ele>
        <time>2017-07-13T10:06:23Z</time>
      </trkpt>
      <trkpt lat="59.612232139919" lon="14.931346088335">
        <ele>98</ele>
        <time>2017-07-13T10:06:29Z</time>
      </trkpt>
      <trkpt lat="59.612354264202" lon="14.931364360877">
        <ele>98</ele>
        <time>2017-07-13T10:06:35Z</time>
      </trkpt>
      <trkpt lat="59.612482088177" lon="14.931393948984">
        <ele>98</ele>
        <time>2017-07-13T10:06:42Z</time>
      </trkpt>
      <trkpt lat="59.612599267139" lon="14.931395038631">
        <ele>98</ele>
        <time>2017-07-13T10:06:49Z</time>
      </trkpt>
      <trkpt lat="59.612696245722" lon="14.931410964241">
        <ele>98</ele>
        <time>2017-07-13T10:06:54Z</time>
      </trkpt>
      <trkpt lat="59.612823063869" lon="14.931426470756">
        <ele>98</ele>
        <time>2017-07-13T10:07:01Z</time>
      </trkpt>
      <trkpt lat="59.612878803504" lon="14.931435523208">
        <ele>98</ele>
        <time>2017-07-13T10:07:04Z</time>
      </trkpt>
      <trkpt lat="59.612938314994" lon="14.931443318375">
        <ele>98</ele>
        <time>2017-07-13T10:07:07Z</time>
      </trkpt>
      <trkpt lat="59.612989528403" lon="14.931451197361">
        <ele>98.4</ele>
        <time>2017-07-13T10:07:10Z</time>
      </trkpt>
      <trkpt lat="59.61300654366" lon="14.931451448818">
        <ele>98.8</ele>
        <time>2017-07-13T10:07:11Z</time>
      </trkpt>
      <trkpt lat="59.613023056003" lon="14.931458238157">
        <ele>99.2</ele>
        <time>2017-07-13T10:07:12Z</time>
      </trkpt>
      <trkpt lat="59.613036299405" lon="14.931456897053">
        <ele>99.6</ele>
        <time>2017-07-13T10:07:13Z</time>
      </trkpt>
      <trkpt lat="59.613046860599" lon="14.931463937849">
        <ele>100</ele>
        <time>2017-07-13T10:07:14Z</time>
      </trkpt>
      <trkpt lat="59.613060104001" lon="14.931475085776">
        <ele>100</ele>
        <time>2017-07-13T10:07:16Z</time>
      </trkpt>
      <trkpt lat="59.613068234444" lon="14.931449772438">
        <ele>100</ele>
        <time>2017-07-13T10:07:26Z</time>
      </trkpt>
      <trkpt lat="59.613072928308" lon="14.931423788548">
        <ele>100</ele>
        <time>2017-07-13T10:07:27Z</time>
      </trkpt>
      <trkpt lat="59.613090865574" lon="14.931263358982">
        <ele>100</ele>
        <time>2017-07-13T10:07:32Z</time>
      </trkpt>
      <trkpt lat="59.613097990189" lon="14.931123465071">
        <ele>100</ele>
        <time>2017-07-13T10:07:36Z</time>
      </trkpt>
      <trkpt lat="59.613097571094" lon="14.931092703498">
        <ele>100</ele>
        <time>2017-07-13T10:07:37Z</time>
      </trkpt>
      <trkpt lat="59.613097738732" lon="14.930923892032">
        <ele>100</ele>
        <time>2017-07-13T10:07:43Z</time>
      </trkpt>
      <trkpt lat="59.613129673771" lon="14.930774275117">
        <ele>100</ele>
        <time>2017-07-13T10:07:48Z</time>
      </trkpt>
      <trkpt lat="59.613150377064" lon="14.930720966233">
        <ele>100.4</ele>
        <time>2017-07-13T10:07:50Z</time>
      </trkpt>
      <trkpt lat="59.613152807815" lon="14.930701184949">
        <ele>100.8</ele>
        <time>2017-07-13T10:07:51Z</time>
      </trkpt>
      <trkpt lat="59.613156998765" lon="14.930679056733">
        <ele>101.2</ele>
        <time>2017-07-13T10:07:52Z</time>
      </trkpt>
      <trkpt lat="59.613166302674" lon="14.930657096155">
        <ele>101.6</ele>
        <time>2017-07-13T10:07:53Z</time>
      </trkpt>
      <trkpt lat="59.613180468085" lon="14.930634129749">
        <ele>102</ele>
        <time>2017-07-13T10:07:54Z</time>
      </trkpt>
      <trkpt lat="59.613218018997" lon="14.930556597174">
        <ele>102</ele>
        <time>2017-07-13T10:07:57Z</time>
      </trkpt>
      <trkpt lat="59.613229837476" lon="14.930534217501">
        <ele>102</ele>
        <time>2017-07-13T10:07:58Z</time>
      </trkpt>
      <trkpt lat="59.613270405872" lon="14.930456098193">
        <ele>102</ele>
        <time>2017-07-13T10:08:02Z</time>
      </trkpt>
      <trkpt lat="59.613288762233" lon="14.930413769598">
        <ele>102.6</ele>
        <time>2017-07-13T10:08:04Z</time>
      </trkpt>
      <trkpt lat="59.613292534088" lon="14.930397257255">
        <ele>103</ele>
        <time>2017-07-13T10:08:05Z</time>
      </trkpt>
      <trkpt lat="59.61329907197" lon="14.930374961401">
        <ele>103.4</ele>
        <time>2017-07-13T10:08:06Z</time>
      </trkpt>
      <trkpt lat="59.613307789146" lon="14.930349564244">
        <ele>103.8</ele>
        <time>2017-07-13T10:08:07Z</time>
      </trkpt>
      <trkpt lat="59.613317344512" lon="14.930326933114">
        <ele>104.2</ele>
        <time>2017-07-13T10:08:08Z</time>
      </trkpt>
      <trkpt lat="59.613338215443" lon="14.930276809352">
        <ele>104.2</ele>
        <time>2017-07-13T10:08:10Z</time>
      </trkpt>
      <trkpt lat="59.613350033922" lon="14.930253088575">
        <ele>104.2</ele>
        <time>2017-07-13T10:08:11Z</time>
      </trkpt>
      <trkpt lat="59.61339462563" lon="14.930184273176">
        <ele>104.2</ele>
        <time>2017-07-13T10:08:14Z</time>
      </trkpt>
      <trkpt lat="59.613412311439" lon="14.930160887675">
        <ele>104.2</ele>
        <time>2017-07-13T10:08:15Z</time>
      </trkpt>
      <trkpt lat="59.613450281446" lon="14.930087210774">
        <ele>104.2</ele>
        <time>2017-07-13T10:08:18Z</time>
      </trkpt>
      <trkpt lat="59.613468051074" lon="14.930041529419">
        <ele>104.2</ele>
        <time>2017-07-13T10:08:20Z</time>
      </trkpt>
      <trkpt lat="59.613492777679" lon="14.92999366877">
        <ele>104.2</ele>
        <time>2017-07-13T10:08:23Z</time>
      </trkpt>
      <trkpt lat="59.61351029585" lon="14.929955447306">
        <ele>104.2</ele>
        <time>2017-07-13T10:08:25Z</time>
      </trkpt>
      <trkpt lat="59.61352119232" lon="14.929939856972">
        <ele>104.2</ele>
        <time>2017-07-13T10:08:26Z</time>
      </trkpt>
      <trkpt lat="59.613570394073" lon="14.929845476778">
        <ele>104.6</ele>
        <time>2017-07-13T10:08:30Z</time>
      </trkpt>
      <trkpt lat="59.61358489476" lon="14.929822510372">
        <ele>105</ele>
        <time>2017-07-13T10:08:31Z</time>
      </trkpt>
      <trkpt lat="59.613595875049" lon="14.929794514826">
        <ele>105.4</ele>
        <time>2017-07-13T10:08:32Z</time>
      </trkpt>
      <trkpt lat="59.61360584951" lon="14.929762663606">
        <ele>106</ele>
        <time>2017-07-13T10:08:33Z</time>
      </trkpt>
      <trkpt lat="59.613621942758" lon="14.929735338612">
        <ele>106.4</ele>
        <time>2017-07-13T10:08:34Z</time>
      </trkpt>
      <trkpt lat="59.613627474812" lon="14.929676162398">
        <ele>106.4</ele>
        <time>2017-07-13T10:08:36Z</time>
      </trkpt>
      <trkpt lat="59.613635689074" lon="14.92964498173">
        <ele>106.4</ele>
        <time>2017-07-13T10:08:37Z</time>
      </trkpt>
      <trkpt lat="59.613664774267" lon="14.929598294547">
        <ele>106.4</ele>
        <time>2017-07-13T10:08:39Z</time>
      </trkpt>
      <trkpt lat="59.613681118972" lon="14.929545069482">
        <ele>106.4</ele>
        <time>2017-07-13T10:08:41Z</time>
      </trkpt>
      <trkpt lat="59.613685393741" lon="14.92951925323">
        <ele>106.4</ele>
        <time>2017-07-13T10:08:42Z</time>
      </trkpt>
      <trkpt lat="59.6136988886" lon="14.929397631861">
        <ele>107.2</ele>
        <time>2017-07-13T10:08:46Z</time>
      </trkpt>
      <trkpt lat="59.613698553324" lon="14.929383047355">
        <ele>107.6</ele>
        <time>2017-07-13T10:08:47Z</time>
      </trkpt>
      <trkpt lat="59.613697882772" lon="14.92936586446">
        <ele>108</ele>
        <time>2017-07-13T10:08:48Z</time>
      </trkpt>
      <trkpt lat="59.613698218048" lon="14.929347256642">
        <ele>108.4</ele>
        <time>2017-07-13T10:08:49Z</time>
      </trkpt>
      <trkpt lat="59.613698469505" lon="14.929273412103">
        <ele>108.4</ele>
        <time>2017-07-13T10:08:53Z</time>
      </trkpt>
      <trkpt lat="59.613704839749" lon="14.929242818168">
        <ele>108.4</ele>
        <time>2017-07-13T10:08:55Z</time>
      </trkpt>
      <trkpt lat="59.61371062326" lon="14.92917978628">
        <ele>108.4</ele>
        <time>2017-07-13T10:08:59Z</time>
      </trkpt>
      <trkpt lat="59.61371900516" lon="14.92909009995">
        <ele>108.4</ele>
        <time>2017-07-13T10:09:05Z</time>
      </trkpt>
      <trkpt lat="59.61370978507" lon="14.929035701419">
        <ele>108.4</ele>
        <time>2017-07-13T10:09:18Z</time>
      </trkpt>
      <trkpt lat="59.613708695423" lon="14.928957330654">
        <ele>108.8</ele>
        <time>2017-07-13T10:09:22Z</time>
      </trkpt>
      <trkpt lat="59.613707438138" lon="14.928934699524">
        <ele>109.2</ele>
        <time>2017-07-13T10:09:23Z</time>
      </trkpt>
      <trkpt lat="59.613707689595" lon="14.928913996231">
        <ele>109.8</ele>
        <time>2017-07-13T10:09:24Z</time>
      </trkpt>
      <trkpt lat="59.613709030699" lon="14.928894550223">
        <ele>110.2</ele>
        <time>2017-07-13T10:09:25Z</time>
      </trkpt>
      <trkpt lat="59.613713556925" lon="14.928877283509">
        <ele>110.6</ele>
        <time>2017-07-13T10:09:26Z</time>
      </trkpt>
      <trkpt lat="59.613716658228" lon="14.92882104096">
        <ele>110.6</ele>
        <time>2017-07-13T10:09:29Z</time>
      </trkpt>
      <trkpt lat="59.613724704852" lon="14.928648206182">
        <ele>110.6</ele>
        <time>2017-07-13T10:09:34Z</time>
      </trkpt>
      <trkpt lat="59.613727722336" lon="14.928529518478">
        <ele>110.6</ele>
        <time>2017-07-13T10:09:37Z</time>
      </trkpt>
      <trkpt lat="59.613728895802" lon="14.928519711655">
        <ele>110.6</ele>
        <time>2017-07-13T10:09:38Z</time>
      </trkpt>
      <trkpt lat="59.613749599095" lon="14.928379398649">
        <ele>110.6</ele>
        <time>2017-07-13T10:10:54Z</time>
      </trkpt>
      <trkpt lat="59.61374750362" lon="14.928353666216">
        <ele>110.6</ele>
        <time>2017-07-13T10:10:55Z</time>
      </trkpt>
      <trkpt lat="59.613748593267" lon="14.928310080336">
        <ele>110.6</ele>
        <time>2017-07-13T10:10:57Z</time>
      </trkpt>
      <trkpt lat="59.613753454769" lon="14.92820329493">
        <ele>111</ele>
        <time>2017-07-13T10:11:02Z</time>
      </trkpt>
      <trkpt lat="59.613754460597" lon="14.928183262189">
        <ele>111.4</ele>
        <time>2017-07-13T10:11:03Z</time>
      </trkpt>
      <trkpt lat="59.613757142805" lon="14.928167923312">
        <ele>111.8</ele>
        <time>2017-07-13T10:11:04Z</time>
      </trkpt>
      <trkpt lat="59.613757813357" lon="14.928150908055">
        <ele>112.2</ele>
        <time>2017-07-13T10:11:05Z</time>
      </trkpt>
      <trkpt lat="59.613759657375" lon="14.928141855603">
        <ele>112.6</ele>
        <time>2017-07-13T10:11:06Z</time>
      </trkpt>
      <trkpt lat="59.613827802222" lon="14.927604240537">
        <ele>114.6</ele>
        <time>2017-07-13T10:11:42Z</time>
      </trkpt>
      <trkpt lat="59.613818330675" lon="14.927572305498">
        <ele>114.6</ele>
        <time>2017-07-13T10:11:44Z</time>
      </trkpt>
      <trkpt lat="59.613818582132" lon="14.927564091236">
        <ele>114.6</ele>
        <time>2017-07-13T10:11:45Z</time>
      </trkpt>
      <trkpt lat="59.613293623735" lon="14.926310829548">
        <ele>120.8</ele>
        <time>2017-07-13T10:14:28Z</time>
      </trkpt>
      <trkpt lat="59.613274932098" lon="14.926262633623">
        <ele>120.8</ele>
        <time>2017-07-13T10:14:30Z</time>
      </trkpt>
      <trkpt lat="59.613248445294" lon="14.926206139617">
        <ele>121.8</ele>
        <time>2017-07-13T10:14:32Z</time>
      </trkpt>
      <trkpt lat="59.613232771141" lon="14.926176635329">
        <ele>122.2</ele>
        <time>2017-07-13T10:14:33Z</time>
      </trkpt>
      <trkpt lat="59.613215755884" lon="14.926150232344">
        <ele>122.6</ele>
        <time>2017-07-13T10:14:34Z</time>
      </trkpt>
      <trkpt lat="59.613200919921" lon="14.926128858499">
        <ele>123</ele>
        <time>2017-07-13T10:14:35Z</time>
      </trkpt>
      <trkpt lat="59.613185832501" lon="14.926107233197">
        <ele>123</ele>
        <time>2017-07-13T10:14:36Z</time>
      </trkpt>
      <trkpt lat="59.613125901916" lon="14.926020564351">
        <ele>123</ele>
        <time>2017-07-13T10:14:39Z</time>
      </trkpt>
      <trkpt lat="59.613085752615" lon="14.925977984299">
        <ele>123</ele>
        <time>2017-07-13T10:14:41Z</time>
      </trkpt>
      <trkpt lat="59.612973351336" lon="14.925878826422">
        <ele>123</ele>
        <time>2017-07-13T10:14:46Z</time>
      </trkpt>
      <trkpt lat="59.612804623689" lon="14.92578679316">
        <ele>123</ele>
        <time>2017-07-13T10:14:54Z</time>
      </trkpt>
      <trkpt lat="59.612655593507" lon="14.925725856747">
        <ele>123</ele>
        <time>2017-07-13T10:14:59Z</time>
      </trkpt>
      <trkpt lat="59.612469347689" lon="14.925673302234">
        <ele>123</ele>
        <time>2017-07-13T10:15:05Z</time>
      </trkpt>
      <trkpt lat="59.612310510684" lon="14.925650335828">
        <ele>123</ele>
        <time>2017-07-13T10:15:11Z</time>
      </trkpt>
      <trkpt lat="59.61219433755" lon="14.925616975866">
        <ele>123</ele>
        <time>2017-07-13T10:15:16Z</time>
      </trkpt>
      <trkpt lat="59.612026028998" lon="14.92560071498">
        <ele>123</ele>
        <time>2017-07-13T10:15:21Z</time>
      </trkpt>
      <trkpt lat="59.611814134566" lon="14.925603900102">
        <ele>123</ele>
        <time>2017-07-13T10:15:27Z</time>
      </trkpt>
      <trkpt lat="59.611679269795" lon="14.925636002779">
        <ele>123</ele>
        <time>2017-07-13T10:15:34Z</time>
      </trkpt>
    </trkseg>
  </trk>
</gpx>